Observation data for Bootleg on 10/13/2019      Previous  Date       Current Mesonet Observations  Soil Data  Daily Summary Page  Observations in Plain Language
KBO1 130500Z 22016KT 11/02 A30 RMK A01 T01130018  RH  052%=      5-min Rain = 0
KBO1 130501Z 22016KT 11/02 A30 RMK A01 T01130018  RH  052%=      5-min Rain = 0
KBO1 130502Z 22017KT 11/02 A30 RMK A01 T01130018  RH  052%=      5-min Rain = 0
KBO1 130503Z 22016KT 11/02 A30 RMK A01 T01130018  RH  052%=      5-min Rain = 0
KBO1 130504Z 22016KT 11/02 A30 RMK A01 T01130018  RH  052%=      5-min Rain = 0
KBO1 130505Z 22016KT 11/02 A30 RMK A01 T01130018  RH  052%=      5-min Rain = 0
KBO1 130506Z 23015KT 11/02 A30 RMK A01 T01120018  RH  052%=      5-min Rain = 0
KBO1 130507Z 22016KT 11/02 A30 RMK A01 T01120018  RH  052%=      5-min Rain = 0
KBO1 130508Z 22015KT 11/02 A30 RMK A01 T01120018  RH  052%=      5-min Rain = 0
KBO1 130509Z 23015KT 11/02 A30 RMK A01 T01120018  RH  052%=      5-min Rain = 0
KBO1 130510Z 23016KT 11/02 A30 RMK A01 T01120018  RH  053%=      5-min Rain = 0
KBO1 130511Z 22015KT 11/02 A30 RMK A01 T01110018  RH  053%=      5-min Rain = 0
KBO1 130512Z 23014KT 11/02 A30 RMK A01 T01100018  RH  053%=      5-min Rain = 0
KBO1 130513Z 23014KT 11/02 A30 RMK A01 T01100018  RH  053%=      5-min Rain = 0
KBO1 130514Z 23014KT 11/02 A30 RMK A01 T01090018  RH  054%=      5-min Rain = 0
KBO1 130515Z 23014KT 11/02 A30 RMK A01 T01070018  RH  054%=      5-min Rain = 0
KBO1 130516Z 22014KT 11/02 A30 RMK A01 T01060018  RH  055%=      5-min Rain = 0
KBO1 130517Z 23015KT 11/02 A30 RMK A01 T01060019  RH  055%=      5-min Rain = 0
KBO1 130518Z 22016KT 11/02 A30 RMK A01 T01050019  RH  055%=      5-min Rain = 0
KBO1 130519Z 22016KT 11/02 A30 RMK A01 T01050019  RH  055%=      5-min Rain = 0
KBO1 130520Z 22017KT 11/02 A30 RMK A01 T01050019  RH  055%=      5-min Rain = 0
KBO1 130521Z 22016KT 11/02 A30 RMK A01 T01050018  RH  055%=      5-min Rain = 0
KBO1 130522Z 23016KT 11/02 A30 RMK A01 T01060019  RH  055%=      5-min Rain = 0
KBO1 130523Z 23017KT 11/02 A30 RMK A01 T01060018  RH  055%=      5-min Rain = 0
KBO1 130524Z 23017KT 11/02 A30 RMK A01 T01060018  RH  054%=      5-min Rain = 0
KBO1 130525Z 23016KT 11/02 A30 RMK A01 T01070018  RH  054%=      5-min Rain = 0
KBO1 130526Z 23016KT 11/02 A30 RMK A01 T01070018  RH  054%=      5-min Rain = 0
KBO1 130527Z 23016KT 11/02 A30 RMK A01 T01070018  RH  054%=      5-min Rain = 0
KBO1 130528Z 23017KT 11/02 A30 RMK A01 T01070018  RH  054%=      5-min Rain = 0
KBO1 130529Z 23017KT 11/02 A30 RMK A01 T01070017  RH  054%=      5-min Rain = 0
KBO1 130530Z 23017KT 11/02 A30 RMK A01 T01070017  RH  054%=      5-min Rain = 0
KBO1 130531Z 23016KT 11/02 A30 RMK A01 T01080018  RH  054%=      5-min Rain = 0
KBO1 130532Z 23016KT 11/02 A30 RMK A01 T01070017  RH  054%=      5-min Rain = 0
KBO1 130533Z 23015KT 11/02 A30 RMK A01 T01060017  RH  054%=      5-min Rain = 0
KBO1 130534Z 23016KT 11/02 A30 RMK A01 T01060018  RH  054%=      5-min Rain = 0
KBO1 130535Z 23015KT 11/02 A30 RMK A01 T01060017  RH  054%=      5-min Rain = 0
KBO1 130536Z 23016KT 11/02 A30 RMK A01 T01060017  RH  054%=      5-min Rain = 0
KBO1 130537Z 23016KT 11/02 A30 RMK A01 T01060017  RH  054%=      5-min Rain = 0
KBO1 130538Z 23016KT 11/02 A30 RMK A01 T01060017  RH  054%=      5-min Rain = 0
KBO1 130539Z 23016KT 11/02 A30 RMK A01 T01060017  RH  054%=      5-min Rain = 0
KBO1 130540Z 23017KT 11/02 A30 RMK A01 T01060017  RH  054%=      5-min Rain = 0
KBO1 130541Z 23017KT 11/02 A30 RMK A01 T01060017  RH  054%=      5-min Rain = 0
KBO1 130542Z 23017KT 11/02 A30 RMK A01 T01050017  RH  054%=      5-min Rain = 0
KBO1 130543Z 23016KT 11/02 A30 RMK A01 T01050017  RH  054%=      5-min Rain = 0
KBO1 130544Z 23016KT 11/02 A30 RMK A01 T01050017  RH  054%=      5-min Rain = 0
KBO1 130545Z 23016KT 11/02 A30 RMK A01 T01050017  RH  054%=      5-min Rain = 0
KBO1 130546Z 23016KT 11/02 A30 RMK A01 T01050017  RH  054%=      5-min Rain = 0
KBO1 130547Z 23017KT 11/02 A30 RMK A01 T01050017  RH  055%=      5-min Rain = 0
KBO1 130548Z 23015KT 10/02 A30 RMK A01 T01040017  RH  055%=      5-min Rain = 0
KBO1 130549Z 23015KT 10/02 A30 RMK A01 T01040017  RH  055%=      5-min Rain = 0
KBO1 130550Z 23015KT 10/02 A30 RMK A01 T01040017  RH  055%=      5-min Rain = 0
KBO1 130551Z 23015KT 10/02 A30 RMK A01 T01030017  RH  055%=      5-min Rain = 0
KBO1 130552Z 23015KT 10/02 A30 RMK A01 T01030017  RH  055%=      5-min Rain = 0
KBO1 130553Z 23015KT 10/02 A30 RMK A01 T01020017  RH  055%=      5-min Rain = 0
KBO1 130554Z 24016KT 10/02 A30 RMK A01 T01020016  RH  055%=      5-min Rain = 0
KBO1 130555Z 23015KT 10/02 A30 RMK A01 T01020016  RH  055%=      5-min Rain = 0
KBO1 130556Z 23014KT 10/02 A30 RMK A01 T01020016  RH  055%=      5-min Rain = 0
KBO1 130557Z 23015KT 10/02 A30 RMK A01 T01020017  RH  055%=      5-min Rain = 0
KBO1 130558Z 23015KT 10/02 A30 RMK A01 T01020016  RH  055%=      5-min Rain = 0
KBO1 130559Z 24015KT 10/02 A30 RMK A01 T01020016  RH  055%=      5-min Rain = 0
KBO1 130600Z 24015KT 10/02 A30 RMK A01 T01020015  RH  055%=      5-min Rain = 0
KBO1 130601Z 24015KT 10/02 A30 RMK A01 T01020015  RH  055%=      5-min Rain = 0
KBO1 130602Z 24014KT 10/02 A30 RMK A01 T01030015  RH  055%=      5-min Rain = 0
KBO1 130603Z 24014KT 10/02 A30 RMK A01 T01030016  RH  055%=      5-min Rain = 0
KBO1 130604Z 24015KT 10/02 A30 RMK A01 T01030015  RH  054%=      5-min Rain = 0
KBO1 130605Z 23015KT 10/01 A30 RMK A01 T01030014  RH  054%=      5-min Rain = 0
KBO1 130606Z 23014KT 10/01 A30 RMK A01 T01040014  RH  054%=      5-min Rain = 0
KBO1 130607Z 23014KT 10/01 A30 RMK A01 T01040014  RH  054%=      5-min Rain = 0
KBO1 130608Z 23014KT 10/02 A30 RMK A01 T01040015  RH  054%=      5-min Rain = 0
KBO1 130609Z 23014KT 10/01 A30 RMK A01 T01030014  RH  054%=      5-min Rain = 0
KBO1 130610Z 23014KT 10/01 A30 RMK A01 T01030014  RH  054%=      5-min Rain = 0
KBO1 130611Z 23013KT 10/01 A30 RMK A01 T01030014  RH  054%=      5-min Rain = 0
KBO1 130612Z 23014KT 10/02 A30 RMK A01 T01030015  RH  054%=      5-min Rain = 0
KBO1 130613Z 23013KT 10/01 A30 RMK A01 T01030014  RH  054%=      5-min Rain = 0
KBO1 130614Z 23015KT 10/01 A30 RMK A01 T01030014  RH  054%=      5-min Rain = 0
KBO1 130615Z 23014KT 10/01 A30 RMK A01 T01030014  RH  054%=      5-min Rain = 0
KBO1 130616Z 23013KT 10/01 A30 RMK A01 T01030014  RH  054%=      5-min Rain = 0
KBO1 130617Z 24013KT 10/01 A30 RMK A01 T01030013  RH  054%=      5-min Rain = 0
KBO1 130618Z 23013KT 10/01 A30 RMK A01 T01030014  RH  054%=      5-min Rain = 0
KBO1 130619Z 24014G19KT 10/01 A30 RMK A01 T01030013  RH  054%=      5-min Rain = 0
KBO1 130620Z 23015KT 10/01 A30 RMK A01 T01030013  RH  054%=      5-min Rain = 0
KBO1 130621Z 23016KT 10/01 A2999 RMK A01 T01040013  RH  053%=      5-min Rain = 0
KBO1 130622Z 23014KT 11/01 A30 RMK A01 T01050013  RH  053%=      5-min Rain = 0
KBO1 130623Z 24015KT 11/01 A2999 RMK A01 T01050013  RH  053%=      5-min Rain = 0
KBO1 130624Z 23016KT 11/01 A2999 RMK A01 T01050013  RH  053%=      5-min Rain = 0
KBO1 130625Z 24015KT 11/01 A2999 RMK A01 T01050013  RH  053%=      5-min Rain = 0
KBO1 130626Z 24015KT 11/01 A2999 RMK A01 T01050013  RH  053%=      5-min Rain = 0
KBO1 130627Z 23015KT 11/01 A2999 RMK A01 T01050013  RH  053%=      5-min Rain = 0
KBO1 130628Z 23015KT 10/01 A2999 RMK A01 T01040013  RH  053%=      5-min Rain = 0
KBO1 130629Z 23016KT 10/01 A2999 RMK A01 T01040013  RH  053%=      5-min Rain = 0
KBO1 130630Z 23016KT 10/01 A2999 RMK A01 T01040013  RH  053%=      5-min Rain = 0
KBO1 130631Z 23017KT 10/01 A2999 RMK A01 T01040013  RH  053%=      5-min Rain = 0
KBO1 130632Z 23017KT 10/01 A2999 RMK A01 T01040012  RH  053%=      5-min Rain = 0
KBO1 130633Z 23016KT 11/01 A2999 RMK A01 T01050013  RH  053%=      5-min Rain = 0
KBO1 130634Z 23017KT 11/01 A2999 RMK A01 T01050012  RH  053%=      5-min Rain = 0
KBO1 130635Z 23018KT 11/01 A2999 RMK A01 T01050012  RH  053%=      5-min Rain = 0
KBO1 130636Z 23017KT 11/01 A2999 RMK A01 T01050012  RH  053%=      5-min Rain = 0
KBO1 130637Z 23017KT 11/01 A2999 RMK A01 T01050013  RH  053%=      5-min Rain = 0
KBO1 130638Z 23017KT 11/01 A2999 RMK A01 T01050012  RH  053%=      5-min Rain = 0
KBO1 130639Z 23017KT 10/01 A2999 RMK A01 T01040012  RH  053%=      5-min Rain = 0
KBO1 130640Z 23020KT 10/01 A2999 RMK A01 T01040012  RH  053%=      5-min Rain = 0
KBO1 130641Z 23021KT 10/01 A2999 RMK A01 T01040012  RH  053%=      5-min Rain = 0
KBO1 130642Z 23019KT 11/01 A2999 RMK A01 T01060012  RH  052%=      5-min Rain = 0
KBO1 130643Z 23021KT 11/01 A2999 RMK A01 T01060012  RH  052%=      5-min Rain = 0
KBO1 130644Z 23020KT 11/01 A2999 RMK A01 T01060012  RH  052%=      5-min Rain = 0
KBO1 130645Z 24019KT 11/01 A2999 RMK A01 T01060012  RH  052%=      5-min Rain = 0
KBO1 130646Z 23021KT 11/01 A2999 RMK A01 T01060012  RH  052%=      5-min Rain = 0
KBO1 130647Z 23019KT 11/01 A2999 RMK A01 T01060012  RH  052%=      5-min Rain = 0
KBO1 130648Z 23021KT 11/01 A2999 RMK A01 T01060011  RH  052%=      5-min Rain = 0
KBO1 130649Z 24020KT 11/01 A2999 RMK A01 T01060011  RH  052%=      5-min Rain = 0
KBO1 130650Z 23021KT 11/01 A2999 RMK A01 T01060011  RH  052%=      5-min Rain = 0
KBO1 130651Z 23020KT 11/01 A2999 RMK A01 T01060011  RH  052%=      5-min Rain = 0
KBO1 130652Z 23020KT 11/01 A2999 RMK A01 T01060011  RH  052%=      5-min Rain = 0
KBO1 130653Z 23019KT 11/01 A2999 RMK A01 T01060010  RH  052%=      5-min Rain = 0
KBO1 130654Z 23017KT 11/01 A2999 RMK A01 T01060011  RH  052%=      5-min Rain = 0
KBO1 130655Z 23018KT 11/01 A2999 RMK A01 T01060011  RH  052%=      5-min Rain = 0
KBO1 130656Z 23018KT 11/01 A2999 RMK A01 T01060011  RH  052%=      5-min Rain = 0
KBO1 130657Z 23016KT 11/01 A30 RMK A01 T01050011  RH  052%=      5-min Rain = 0
KBO1 130658Z 23017KT 10/01 A2999 RMK A01 T01040011  RH  052%=      5-min Rain = 0
KBO1 130659Z 23016KT 10/01 A30 RMK A01 T01040011  RH  052%=      5-min Rain = 0
KBO1 130700Z 23017KT 10/01 A30 RMK A01 T01030010  RH  053%=      5-min Rain = 0
KBO1 130701Z 23016KT 10/01 A2999 RMK A01 T01030011  RH  053%=      5-min Rain = 0
KBO1 130702Z 23016KT 10/01 A2999 RMK A01 T01030011  RH  053%=      5-min Rain = 0
KBO1 130703Z 23016KT 10/01 A30 RMK A01 T01020011  RH  053%=      5-min Rain = 0
KBO1 130704Z 24017KT 10/01 A30 RMK A01 T01020011  RH  053%=      5-min Rain = 0
KBO1 130705Z 23016KT 10/01 A30 RMK A01 T01020010  RH  053%=      5-min Rain = 0
KBO1 130706Z 23015KT 10/01 A30 RMK A01 T01020011  RH  053%=      5-min Rain = 0
KBO1 130707Z 24014KT 10/01 A30 RMK A01 T01010011  RH  053%=      5-min Rain = 0
KBO1 130708Z 23014KT 10/01 A30 RMK A01 T01000011  RH  054%=      5-min Rain = 0
KBO1 130709Z 24014KT 10/01 A30 RMK A01 T01000011  RH  054%=      5-min Rain = 0
KBO1 130710Z 24014KT 10/01 A30 RMK A01 T01000011  RH  054%=      5-min Rain = 0
KBO1 130711Z 23015KT 10/01 A30 RMK A01 T01000011  RH  054%=      5-min Rain = 0
KBO1 130712Z 24014KT 10/01 A30 RMK A01 T01010011  RH  054%=      5-min Rain = 0
KBO1 130713Z 24014KT 10/01 A30 RMK A01 T01010011  RH  054%=      5-min Rain = 0
KBO1 130714Z 24014KT 10/01 A30 RMK A01 T01000011  RH  054%=      5-min Rain = 0
KBO1 130715Z 24014KT 10/01 A30 RMK A01 T01000011  RH  054%=      5-min Rain = 0
KBO1 130716Z 24013KT 10/01 A30 RMK A01 T01000011  RH  054%=      5-min Rain = 0
KBO1 130717Z 24015KT 10/01 A30 RMK A01 T00990011  RH  054%=      5-min Rain = 0
KBO1 130718Z 24015KT 10/01 A30 RMK A01 T00990011  RH  054%=      5-min Rain = 0
KBO1 130719Z 24015KT 10/01 A30 RMK A01 T00990011  RH  054%=      5-min Rain = 0
KBO1 130720Z 24015KT 10/01 A30 RMK A01 T00990011  RH  054%=      5-min Rain = 0
KBO1 130721Z 24015KT 10/01 A30 RMK A01 T00990011  RH  054%=      5-min Rain = 0
KBO1 130722Z 24015KT 10/01 A30 RMK A01 T00990011  RH  054%=      5-min Rain = 0
KBO1 130723Z 24015KT 10/01 A2999 RMK A01 T00990011  RH  054%=      5-min Rain = 0
KBO1 130724Z 24016KT 10/01 A2999 RMK A01 T00990011  RH  054%=      5-min Rain = 0
KBO1 130725Z 24016KT 10/01 A2999 RMK A01 T00990011  RH  054%=      5-min Rain = 0
KBO1 130726Z 24016KT 10/01 A2999 RMK A01 T00990011  RH  054%=      5-min Rain = 0
KBO1 130727Z 23016KT 10/01 A2999 RMK A01 T00990011  RH  054%=      5-min Rain = 0
KBO1 130728Z 23016KT 10/01 A2999 RMK A01 T00990012  RH  055%=      5-min Rain = 0
KBO1 130729Z 23017KT 10/01 A2999 RMK A01 T00980011  RH  055%=      5-min Rain = 0
KBO1 130730Z 23017KT 10/01 A2999 RMK A01 T00980011  RH  055%=      5-min Rain = 0
KBO1 130731Z 23018KT 10/01 A2999 RMK A01 T00990011  RH  054%=      5-min Rain = 0
KBO1 130732Z 23017KT 10/01 A2999 RMK A01 T00990011  RH  054%=      5-min Rain = 0
KBO1 130733Z 23017KT 10/01 A2999 RMK A01 T00990011  RH  054%=      5-min Rain = 0
KBO1 130734Z 23017KT 10/01 A2999 RMK A01 T00990011  RH  054%=      5-min Rain = 0
KBO1 130735Z 24018KT 10/01 A2999 RMK A01 T00990011  RH  054%=      5-min Rain = 0
KBO1 130736Z 23018KT 10/01 A2999 RMK A01 T01000011  RH  054%=      5-min Rain = 0
KBO1 130737Z 23019KT 10/01 A2999 RMK A01 T01010011  RH  054%=      5-min Rain = 0
KBO1 130738Z 23019KT 10/01 A2999 RMK A01 T01020011  RH  053%=      5-min Rain = 0
KBO1 130739Z 23017KT 10/01 A2999 RMK A01 T01020011  RH  053%=      5-min Rain = 0
KBO1 130740Z 23018KT 10/01 A2999 RMK A01 T01010011  RH  054%=      5-min Rain = 0
KBO1 130741Z 23018KT 10/01 A2999 RMK A01 T01000011  RH  054%=      5-min Rain = 0
KBO1 130742Z 23018KT 10/01 A2999 RMK A01 T01000010  RH  054%=      5-min Rain = 0
KBO1 130743Z 23019KT 10/01 A2999 RMK A01 T01000011  RH  054%=      5-min Rain = 0
KBO1 130744Z 23019KT 10/01 A2999 RMK A01 T01000011  RH  054%=      5-min Rain = 0
KBO1 130745Z 23019KT 10/01 A2999 RMK A01 T01000011  RH  054%=      5-min Rain = 0
KBO1 130746Z 23018KT 10/01 A2999 RMK A01 T01000011  RH  054%=      5-min Rain = 0
KBO1 130747Z 23019KT 10/01 A2999 RMK A01 T01000011  RH  054%=      5-min Rain = 0
KBO1 130748Z 23018KT 10/01 A2999 RMK A01 T01000011  RH  054%=      5-min Rain = 0
KBO1 130749Z 23018KT 10/01 A2999 RMK A01 T01000011  RH  054%=      5-min Rain = 0
KBO1 130750Z 23020KT 10/01 A2999 RMK A01 T00990011  RH  054%=      5-min Rain = 0
KBO1 130751Z 23020KT 10/01 A2999 RMK A01 T00990010  RH  054%=      5-min Rain = 0
KBO1 130752Z 23020KT 10/01 A2999 RMK A01 T01000011  RH  054%=      5-min Rain = 0
KBO1 130753Z 23019KT 10/01 A2999 RMK A01 T01000011  RH  054%=      5-min Rain = 0
KBO1 130754Z 23019KT 10/01 A2999 RMK A01 T01000011  RH  054%=      5-min Rain = 0
KBO1 130755Z 23019KT 10/01 A2999 RMK A01 T01000011  RH  054%=      5-min Rain = 0
KBO1 130756Z 23018KT 10/01 A2999 RMK A01 T01000011  RH  054%=      5-min Rain = 0
KBO1 130757Z 23018KT 10/01 A2999 RMK A01 T00990011  RH  054%=      5-min Rain = 0
KBO1 130758Z 23019KT 10/01 A2999 RMK A01 T00990011  RH  054%=      5-min Rain = 0
KBO1 130759Z 23019KT 10/01 A2999 RMK A01 T00990011  RH  054%=      5-min Rain = 0
KBO1 130800Z 23019KT 10/01 A2999 RMK A01 T00990011  RH  054%=      5-min Rain = 0
KBO1 130801Z 23017KT 10/01 A2999 RMK A01 T00980011  RH  055%=      5-min Rain = 0
KBO1 130802Z 23019KT 10/01 A2999 RMK A01 T00970011  RH  055%=      5-min Rain = 0
KBO1 130803Z 23018KT 10/01 A2999 RMK A01 T00970011  RH  055%=      5-min Rain = 0
KBO1 130804Z 23018KT 10/01 A2999 RMK A01 T00970011  RH  055%=      5-min Rain = 0
KBO1 130805Z 23019KT 10/01 A2999 RMK A01 T00970011  RH  055%=      5-min Rain = 0
KBO1 130806Z 23018KT 10/01 A2999 RMK A01 T00970011  RH  055%=      5-min Rain = 0
KBO1 130807Z 23017KT 10/01 A2999 RMK A01 T00980011  RH  055%=      5-min Rain = 0
KBO1 130808Z 23018KT 10/01 A2999 RMK A01 T00980011  RH  055%=      5-min Rain = 0
KBO1 130809Z 24018KT 10/01 A2999 RMK A01 T00980011  RH  055%=      5-min Rain = 0
KBO1 130810Z 23018KT 10/01 A2999 RMK A01 T00980012  RH  055%=      5-min Rain = 0
KBO1 130811Z 23018KT 10/01 A2999 RMK A01 T00980012  RH  055%=      5-min Rain = 0
KBO1 130812Z 23017KT 10/01 A2999 RMK A01 T00970011  RH  055%=      5-min Rain = 0
KBO1 130813Z 23017KT 10/01 A2999 RMK A01 T00970012  RH  055%=      5-min Rain = 0
KBO1 130814Z 23016KT 10/01 A2999 RMK A01 T00960012  RH  056%=      5-min Rain = 0
KBO1 130815Z 23016KT 10/01 A2999 RMK A01 T00960012  RH  056%=      5-min Rain = 0
KBO1 130816Z 24016KT 09/01 A2999 RMK A01 T00940012  RH  056%=      5-min Rain = 0
KBO1 130817Z 23016KT 09/01 A2999 RMK A01 T00940012  RH  057%=      5-min Rain = 0
KBO1 130818Z 23016KT 09/01 A2999 RMK A01 T00940012  RH  057%=      5-min Rain = 0
KBO1 130819Z 23016KT 09/01 A2999 RMK A01 T00930012  RH  057%=      5-min Rain = 0
KBO1 130820Z 23016KT 09/01 A2999 RMK A01 T00930012  RH  057%=      5-min Rain = 0
KBO1 130821Z 23016KT 09/01 A2999 RMK A01 T00930012  RH  057%=      5-min Rain = 0
KBO1 130822Z 23016KT 09/01 A2999 RMK A01 T00930012  RH  057%=      5-min Rain = 0
KBO1 130823Z 23016KT 09/01 A2999 RMK A01 T00930013  RH  057%=      5-min Rain = 0
KBO1 130824Z 23016KT 09/01 A2999 RMK A01 T00930013  RH  057%=      5-min Rain = 0
KBO1 130825Z 23016KT 09/01 A2999 RMK A01 T00920012  RH  057%=      5-min Rain = 0
KBO1 130826Z 24016KT 09/01 A2999 RMK A01 T00920013  RH  057%=      5-min Rain = 0
KBO1 130827Z 23016KT 09/01 A2999 RMK A01 T00920013  RH  057%=      5-min Rain = 0
KBO1 130828Z 23016KT 09/01 A2999 RMK A01 T00920012  RH  057%=      5-min Rain = 0
KBO1 130829Z 23016KT 09/01 A2999 RMK A01 T00920012  RH  057%=      5-min Rain = 0
KBO1 130830Z 23016KT 09/01 A2999 RMK A01 T00920012  RH  057%=      5-min Rain = 0
KBO1 130831Z 23015KT 09/01 A2999 RMK A01 T00920013  RH  057%=      5-min Rain = 0
KBO1 130832Z 23015KT 09/01 A2999 RMK A01 T00920013  RH  058%=      5-min Rain = 0
KBO1 130833Z 23016KT 09/01 A2999 RMK A01 T00920013  RH  058%=      5-min Rain = 0
KBO1 130834Z 23015KT 09/01 A2999 RMK A01 T00920013  RH  058%=      5-min Rain = 0
KBO1 130835Z 23015KT 09/01 A2999 RMK A01 T00920013  RH  058%=      5-min Rain = 0
KBO1 130836Z 23015KT 09/01 A2999 RMK A01 T00920013  RH  058%=      5-min Rain = 0
KBO1 130837Z 23014KT 09/01 A2999 RMK A01 T00920013  RH  058%=      5-min Rain = 0
KBO1 130838Z 24015KT 09/01 A2999 RMK A01 T00920013  RH  057%=      5-min Rain = 0
KBO1 130839Z 24014KT 09/01 A2999 RMK A01 T00930012  RH  057%=      5-min Rain = 0
KBO1 130840Z 24014KT 09/01 A2999 RMK A01 T00930013  RH  057%=      5-min Rain = 0
KBO1 130841Z 24014KT 09/01 A2999 RMK A01 T00930013  RH  057%=      5-min Rain = 0
KBO1 130842Z 23013KT 09/01 A2999 RMK A01 T00930013  RH  057%=      5-min Rain = 0
KBO1 130843Z 24014KT 09/01 A2999 RMK A01 T00930013  RH  057%=      5-min Rain = 0
KBO1 130844Z 24014KT 09/01 A2999 RMK A01 T00930013  RH  057%=      5-min Rain = 0
KBO1 130845Z 24014KT 09/01 A2999 RMK A01 T00930013  RH  057%=      5-min Rain = 0
KBO1 130846Z 24013KT 09/01 A2999 RMK A01 T00930013  RH  057%=      5-min Rain = 0
KBO1 130847Z 24013KT 09/01 A30 RMK A01 T00930013  RH  058%=      5-min Rain = 0
KBO1 130848Z 23014KT 09/01 A2999 RMK A01 T00920013  RH  058%=      5-min Rain = 0
KBO1 130849Z 24013KT 09/01 A2999 RMK A01 T00920013  RH  058%=      5-min Rain = 0
KBO1 130850Z 24013KT 09/01 A2999 RMK A01 T00920013  RH  058%=      5-min Rain = 0
KBO1 130851Z 24013KT 09/01 A2999 RMK A01 T00920014  RH  058%=      5-min Rain = 0
KBO1 130852Z 24013KT 09/01 A2999 RMK A01 T00910013  RH  058%=      5-min Rain = 0
KBO1 130853Z 24013KT 09/01 A30 RMK A01 T00910014  RH  058%=      5-min Rain = 0
KBO1 130854Z 24013KT 09/01 A30 RMK A01 T00900013  RH  059%=      5-min Rain = 0
KBO1 130855Z 24012KT 09/01 A30 RMK A01 T00900013  RH  059%=      5-min Rain = 0
KBO1 130856Z 24012KT 09/01 A30 RMK A01 T00890013  RH  059%=      5-min Rain = 0
KBO1 130857Z 24012KT 09/01 A30 RMK A01 T00890014  RH  059%=      5-min Rain = 0
KBO1 130858Z 25011KT 09/01 A30 RMK A01 T00880014  RH  059%=      5-min Rain = 0
KBO1 130859Z 25011KT 09/01 A30 RMK A01 T00870014  RH  060%=      5-min Rain = 0
KBO1 130900Z 25011KT 09/01 A30 RMK A01 T00870014  RH  060%=      5-min Rain = 0
KBO1 130901Z 25011KT 09/01 A30 RMK A01 T00860014  RH  061%=      5-min Rain = 0
KBO1 130902Z 25010KT 09/01 A30 RMK A01 T00850014  RH  061%=      5-min Rain = 0
KBO1 130903Z 26011KT 09/01 A30 RMK A01 T00850014  RH  061%=      5-min Rain = 0
KBO1 130904Z 25012KT 09/01 A30 RMK A01 T00850014  RH  061%=      5-min Rain = 0
KBO1 130905Z 25012KT 08/01 A30 RMK A01 T00840014  RH  061%=      5-min Rain = 0
KBO1 130906Z 25012KT 08/01 A30 RMK A01 T00840014  RH  061%=      5-min Rain = 0
KBO1 130907Z 24012KT 08/01 A30 RMK A01 T00840014  RH  061%=      5-min Rain = 0
KBO1 130908Z 24013KT 08/01 A30 RMK A01 T00840014  RH  061%=      5-min Rain = 0
KBO1 130909Z 24013KT 08/01 A2999 RMK A01 T00840014  RH  061%=      5-min Rain = 0
KBO1 130910Z 24012KT 08/01 A2999 RMK A01 T00840014  RH  061%=      5-min Rain = 0
KBO1 130911Z 25012KT 08/01 A2999 RMK A01 T00840014  RH  061%=      5-min Rain = 0
KBO1 130912Z 25013KT 08/01 A2999 RMK A01 T00840014  RH  061%=      5-min Rain = 0
KBO1 130913Z 24013KT 08/01 A2999 RMK A01 T00840014  RH  061%=      5-min Rain = 0
KBO1 130914Z 25013KT 08/01 A2999 RMK A01 T00840013  RH  061%=      5-min Rain = 0
KBO1 130915Z 25013KT 09/01 A2999 RMK A01 T00860014  RH  060%=      5-min Rain = 0
KBO1 130916Z 25013KT 09/01 A2999 RMK A01 T00870014  RH  060%=      5-min Rain = 0
KBO1 130917Z 25013KT 09/01 A2999 RMK A01 T00880014  RH  060%=      5-min Rain = 0
KBO1 130918Z 25013KT 09/01 A2999 RMK A01 T00880014  RH  060%=      5-min Rain = 0
KBO1 130919Z 25014KT 09/01 A2999 RMK A01 T00880014  RH  059%=      5-min Rain = 0
KBO1 130920Z 24013KT 09/01 A2999 RMK A01 T00880014  RH  059%=      5-min Rain = 0
KBO1 130921Z 24013KT 09/01 A2999 RMK A01 T00890014  RH  059%=      5-min Rain = 0
KBO1 130922Z 25013KT 09/01 A2999 RMK A01 T00890014  RH  059%=      5-min Rain = 0
KBO1 130923Z 25013KT 09/01 A2999 RMK A01 T00890014  RH  059%=      5-min Rain = 0
KBO1 130924Z 25013KT 09/01 A2999 RMK A01 T00900014  RH  059%=      5-min Rain = 0
KBO1 130925Z 25013KT 09/01 A2999 RMK A01 T00900013  RH  059%=      5-min Rain = 0
KBO1 130926Z 25013KT 09/01 A2999 RMK A01 T00900014  RH  059%=      5-min Rain = 0
KBO1 130927Z 25013KT 09/01 A2999 RMK A01 T00900014  RH  059%=      5-min Rain = 0
KBO1 130928Z 25013KT 09/01 A2999 RMK A01 T00890014  RH  059%=      5-min Rain = 0
KBO1 130929Z 25014KT 09/01 A2999 RMK A01 T00890014  RH  059%=      5-min Rain = 0
KBO1 130930Z 25014KT 09/01 A2999 RMK A01 T00890013  RH  059%=      5-min Rain = 0
KBO1 130931Z 25015KT 09/01 A2999 RMK A01 T00890013  RH  059%=      5-min Rain = 0
KBO1 130932Z 25014KT 09/01 A2999 RMK A01 T00900013  RH  059%=      5-min Rain = 0
KBO1 130933Z 25015KT 09/01 A2999 RMK A01 T00890013  RH  059%=      5-min Rain = 0
KBO1 130934Z 25015KT 09/01 A2999 RMK A01 T00900013  RH  059%=      5-min Rain = 0
KBO1 130935Z 25015KT 09/01 A2999 RMK A01 T00900013  RH  059%=      5-min Rain = 0
KBO1 130936Z 25015KT 09/01 A2999 RMK A01 T00900013  RH  059%=      5-min Rain = 0
KBO1 130937Z 25015KT 09/01 A2999 RMK A01 T00900013  RH  059%=      5-min Rain = 0
KBO1 130938Z 25015KT 09/01 A2999 RMK A01 T00910013  RH  058%=      5-min Rain = 0
KBO1 130939Z 25016KT 09/01 A2999 RMK A01 T00900013  RH  058%=      5-min Rain = 0
KBO1 130940Z 25016KT 09/01 A2999 RMK A01 T00910013  RH  058%=      5-min Rain = 0
KBO1 130941Z 24015KT 09/01 A2999 RMK A01 T00910013  RH  058%=      5-min Rain = 0
KBO1 130942Z 25016KT 09/01 A2999 RMK A01 T00900013  RH  058%=      5-min Rain = 0
KBO1 130943Z 25016KT 09/01 A2999 RMK A01 T00910013  RH  058%=      5-min Rain = 0
KBO1 130944Z 25015KT 09/01 A2999 RMK A01 T00920013  RH  058%=      5-min Rain = 0
KBO1 130945Z 25015KT 09/01 A2999 RMK A01 T00920013  RH  058%=      5-min Rain = 0
KBO1 130946Z 25015KT 09/01 A2999 RMK A01 T00910013  RH  058%=      5-min Rain = 0
KBO1 130947Z 25015KT 09/01 A2999 RMK A01 T00920013  RH  058%=      5-min Rain = 0
KBO1 130948Z 25015KT 09/01 A2999 RMK A01 T00910012  RH  058%=      5-min Rain = 0
KBO1 130949Z 25015KT 09/01 A2999 RMK A01 T00910012  RH  058%=      5-min Rain = 0
KBO1 130950Z 25015KT 09/01 A2999 RMK A01 T00910012  RH  058%=      5-min Rain = 0
KBO1 130951Z 25015KT 09/01 A2999 RMK A01 T00910012  RH  058%=      5-min Rain = 0
KBO1 130952Z 25015KT 09/01 A2999 RMK A01 T00900012  RH  058%=      5-min Rain = 0
KBO1 130953Z 25014KT 09/01 A2999 RMK A01 T00900012  RH  058%=      5-min Rain = 0
KBO1 130954Z 25014KT 09/01 A2999 RMK A01 T00890013  RH  059%=      5-min Rain = 0
KBO1 130955Z 25015KT 09/01 A2999 RMK A01 T00890013  RH  059%=      5-min Rain = 0
KBO1 130956Z 25014KT 09/01 A2999 RMK A01 T00890013  RH  059%=      5-min Rain = 0
KBO1 130957Z 25014KT 09/01 A2999 RMK A01 T00880013  RH  059%=      5-min Rain = 0
KBO1 130958Z 25014KT 09/01 A2999 RMK A01 T00880013  RH  059%=      5-min Rain = 0
KBO1 130959Z 25015KT 09/01 A2999 RMK A01 T00880013  RH  059%=      5-min Rain = 0
KBO1 131000Z 25014KT 09/01 A2999 RMK A01 T00880012  RH  059%=      5-min Rain = 0
KBO1 131001Z 25014KT 09/01 A2999 RMK A01 T00880013  RH  059%=      5-min Rain = 0
KBO1 131002Z 25014KT 09/01 A2999 RMK A01 T00880013  RH  059%=      5-min Rain = 0
KBO1 131003Z 25015KT 09/01 A2999 RMK A01 T00880013  RH  059%=      5-min Rain = 0
KBO1 131004Z 25015KT 09/01 A2999 RMK A01 T00880013  RH  059%=      5-min Rain = 0
KBO1 131005Z 25014KT 09/01 A2999 RMK A01 T00880013  RH  059%=      5-min Rain = 0
KBO1 131006Z 25014KT 09/01 A2999 RMK A01 T00870013  RH  059%=      5-min Rain = 0
KBO1 131007Z 25014KT 09/01 A2999 RMK A01 T00870013  RH  060%=      5-min Rain = 0
KBO1 131008Z 25013KT 09/01 A2999 RMK A01 T00870013  RH  060%=      5-min Rain = 0
KBO1 131009Z 25014KT 09/01 A2999 RMK A01 T00870013  RH  060%=      5-min Rain = 0
KBO1 131010Z 25013KT 09/01 A2999 RMK A01 T00860013  RH  060%=      5-min Rain = 0
KBO1 131011Z 25014KT 09/01 A2999 RMK A01 T00860013  RH  060%=      5-min Rain = 0
KBO1 131012Z 25014KT 09/01 A2999 RMK A01 T00860013  RH  060%=      5-min Rain = 0
KBO1 131013Z 25014KT 09/01 A2999 RMK A01 T00860013  RH  060%=      5-min Rain = 0
KBO1 131014Z 25015KT 09/01 A2998 RMK A01 T00860013  RH  060%=      5-min Rain = 0
KBO1 131015Z 25014KT 09/01 A2998 RMK A01 T00870013  RH  060%=      5-min Rain = 0
KBO1 131016Z 25014KT 09/01 A2999 RMK A01 T00870013  RH  060%=      5-min Rain = 0
KBO1 131017Z 25015KT 09/01 A2999 RMK A01 T00870013  RH  060%=      5-min Rain = 0
KBO1 131018Z 25015KT 09/01 A2998 RMK A01 T00870013  RH  060%=      5-min Rain = 0
KBO1 131019Z 25015KT 09/01 A2998 RMK A01 T00870013  RH  059%=      5-min Rain = 0
KBO1 131020Z 25015KT 09/01 A2998 RMK A01 T00880013  RH  059%=      5-min Rain = 0
KBO1 131021Z 25015KT 09/01 A2998 RMK A01 T00880013  RH  059%=      5-min Rain = 0
KBO1 131022Z 25014KT 09/01 A2998 RMK A01 T00880013  RH  059%=      5-min Rain = 0
KBO1 131023Z 26014KT 09/01 A2998 RMK A01 T00880012  RH  059%=      5-min Rain = 0
KBO1 131024Z 26013KT 09/01 A2999 RMK A01 T00880013  RH  059%=      5-min Rain = 0
KBO1 131025Z 26013KT 09/01 A2999 RMK A01 T00880013  RH  059%=      5-min Rain = 0
KBO1 131026Z 26013KT 09/01 A2999 RMK A01 T00880013  RH  059%=      5-min Rain = 0
KBO1 131027Z 26012KT 09/01 A2999 RMK A01 T00880012  RH  059%=      5-min Rain = 0
KBO1 131028Z 26014KT 09/01 A2999 RMK A01 T00880012  RH  059%=      5-min Rain = 0
KBO1 131029Z 26013KT 09/01 A2999 RMK A01 T00880013  RH  059%=      5-min Rain = 0
KBO1 131030Z 26013KT 09/01 A2999 RMK A01 T00880013  RH  059%=      5-min Rain = 0
KBO1 131031Z 26013KT 09/01 A2999 RMK A01 T00880013  RH  059%=      5-min Rain = 0
KBO1 131032Z 26012KT 09/01 A2999 RMK A01 T00880013  RH  059%=      5-min Rain = 0
KBO1 131033Z 26012KT 09/01 A2999 RMK A01 T00880013  RH  059%=      5-min Rain = 0
KBO1 131034Z 26013KT 09/01 A2999 RMK A01 T00880013  RH  059%=      5-min Rain = 0
KBO1 131035Z 26014KT 09/01 A2999 RMK A01 T00870013  RH  059%=      5-min Rain = 0
KBO1 131036Z 26014KT 09/01 A2999 RMK A01 T00880013  RH  059%=      5-min Rain = 0
KBO1 131037Z 26014KT 09/01 A2999 RMK A01 T00880013  RH  059%=      5-min Rain = 0
KBO1 131038Z 26013KT 09/01 A2999 RMK A01 T00890013  RH  059%=      5-min Rain = 0
KBO1 131039Z 26013KT 09/01 A2999 RMK A01 T00890013  RH  059%=      5-min Rain = 0
KBO1 131040Z 26013KT 09/01 A2999 RMK A01 T00880013  RH  059%=      5-min Rain = 0
KBO1 131041Z 26012KT 09/01 A2999 RMK A01 T00880013  RH  060%=      5-min Rain = 0
KBO1 131042Z 26012KT 09/01 A2999 RMK A01 T00870013  RH  060%=      5-min Rain = 0
KBO1 131043Z 26012KT 09/01 A2999 RMK A01 T00870013  RH  060%=      5-min Rain = 0
KBO1 131044Z 26012KT 09/01 A2999 RMK A01 T00860013  RH  060%=      5-min Rain = 0
KBO1 131045Z 26013KT 09/01 A2999 RMK A01 T00860013  RH  060%=      5-min Rain = 0
KBO1 131046Z 26013KT 09/01 A2999 RMK A01 T00850013  RH  060%=      5-min Rain = 0
KBO1 131047Z 26013KT 09/01 A2999 RMK A01 T00850013  RH  061%=      5-min Rain = 0
KBO1 131048Z 26013KT 08/01 A2999 RMK A01 T00840013  RH  061%=      5-min Rain = 0
KBO1 131049Z 26013KT 08/01 A2999 RMK A01 T00830013  RH  061%=      5-min Rain = 0
KBO1 131050Z 26012KT 08/01 A2999 RMK A01 T00830013  RH  061%=      5-min Rain = 0
KBO1 131051Z 26012KT 08/01 A2999 RMK A01 T00820013  RH  062%=      5-min Rain = 0
KBO1 131052Z 26011KT 08/01 A2999 RMK A01 T00820013  RH  062%=      5-min Rain = 0
KBO1 131053Z 26010KT 08/01 A2999 RMK A01 T00810013  RH  062%=      5-min Rain = 0
KBO1 131054Z 27010KT 08/01 A2999 RMK A01 T00800013  RH  063%=      5-min Rain = 0
KBO1 131055Z 27010KT 08/01 A2999 RMK A01 T00790013  RH  063%=      5-min Rain = 0
KBO1 131056Z 26010KT 08/01 A2999 RMK A01 T00780013  RH  063%=      5-min Rain = 0
KBO1 131057Z 26010KT 08/01 A2999 RMK A01 T00770013  RH  064%=      5-min Rain = 0
KBO1 131058Z 26011KT 08/01 A2999 RMK A01 T00770013  RH  064%=      5-min Rain = 0
KBO1 131059Z 26011KT 08/01 A2999 RMK A01 T00770014  RH  064%=      5-min Rain = 0
KBO1 131100Z 26011KT 08/01 A2999 RMK A01 T00770014  RH  064%=      5-min Rain = 0
KBO1 131101Z 26011KT 08/01 A2999 RMK A01 T00770014  RH  064%=      5-min Rain = 0
KBO1 131102Z 26011KT 08/01 A2999 RMK A01 T00760014  RH  064%=      5-min Rain = 0
KBO1 131103Z 26011KT 08/01 A2999 RMK A01 T00770013  RH  064%=      5-min Rain = 0
KBO1 131104Z 26011KT 08/01 A2999 RMK A01 T00770013  RH  064%=      5-min Rain = 0
KBO1 131105Z 26012KT 08/01 A2999 RMK A01 T00770013  RH  064%=      5-min Rain = 0
KBO1 131106Z 26012KT 08/01 A2999 RMK A01 T00770013  RH  064%=      5-min Rain = 0
KBO1 131107Z 26011KT 08/01 A2999 RMK A01 T00770013  RH  064%=      5-min Rain = 0
KBO1 131108Z 26012KT 08/01 A2999 RMK A01 T00770013  RH  064%=      5-min Rain = 0
KBO1 131109Z 25011KT 08/01 A2999 RMK A01 T00770013  RH  064%=      5-min Rain = 0
KBO1 131110Z 26012KT 08/01 A2999 RMK A01 T00770014  RH  064%=      5-min Rain = 0
KBO1 131111Z 26011KT 08/01 A2999 RMK A01 T00770014  RH  064%=      5-min Rain = 0
KBO1 131112Z 26012KT 08/01 A2999 RMK A01 T00770013  RH  064%=      5-min Rain = 0
KBO1 131113Z 26012KT 08/01 A2999 RMK A01 T00780014  RH  064%=      5-min Rain = 0
KBO1 131114Z 26011KT 08/01 A2999 RMK A01 T00780014  RH  064%=      5-min Rain = 0
KBO1 131115Z 26012KT 08/01 A2999 RMK A01 T00780014  RH  064%=      5-min Rain = 0
KBO1 131116Z 26012KT 08/01 A2999 RMK A01 T00780014  RH  064%=      5-min Rain = 0
KBO1 131117Z 26012KT 08/01 A2999 RMK A01 T00780014  RH  064%=      5-min Rain = 0
KBO1 131118Z 26012KT 08/01 A2999 RMK A01 T00790014  RH  064%=      5-min Rain = 0
KBO1 131119Z 25013KT 08/01 A2999 RMK A01 T00800014  RH  063%=      5-min Rain = 0
KBO1 131120Z 25013KT 08/01 A2999 RMK A01 T00800014  RH  063%=      5-min Rain = 0
KBO1 131121Z 25013KT 08/01 A2999 RMK A01 T00800014  RH  063%=      5-min Rain = 0
KBO1 131122Z 24013KT 08/01 A2999 RMK A01 T00800014  RH  063%=      5-min Rain = 0
KBO1 131123Z 25014KT 08/01 A2999 RMK A01 T00810014  RH  063%=      5-min Rain = 0
KBO1 131124Z 24014KT 08/01 A2999 RMK A01 T00810014  RH  063%=      5-min Rain = 0
KBO1 131125Z 24014KT 08/01 A2999 RMK A01 T00810014  RH  063%=      5-min Rain = 0
KBO1 131126Z 24013KT 08/01 A2999 RMK A01 T00810014  RH  063%=      5-min Rain = 0
KBO1 131127Z 24014KT 08/01 A2999 RMK A01 T00800014  RH  063%=      5-min Rain = 0
KBO1 131128Z 24014KT 08/01 A2999 RMK A01 T00800014  RH  063%=      5-min Rain = 0
KBO1 131129Z 24014KT 08/01 A2999 RMK A01 T00800014  RH  063%=      5-min Rain = 0
KBO1 131130Z 24014KT 08/01 A2999 RMK A01 T00800014  RH  063%=      5-min Rain = 0
KBO1 131131Z 24014KT 08/01 A2999 RMK A01 T00800013  RH  063%=      5-min Rain = 0
KBO1 131132Z 24013KT 08/01 A2999 RMK A01 T00800013  RH  063%=      5-min Rain = 0
KBO1 131133Z 24013KT 08/01 A2999 RMK A01 T00790013  RH  063%=      5-min Rain = 0
KBO1 131134Z 24014KT 08/01 A2999 RMK A01 T00790013  RH  063%=      5-min Rain = 0
KBO1 131135Z 24014KT 08/01 A2999 RMK A01 T00790013  RH  063%=      5-min Rain = 0
KBO1 131136Z 24013KT 08/01 A2999 RMK A01 T00800013  RH  063%=      5-min Rain = 0
KBO1 131137Z 24014KT 08/01 A2999 RMK A01 T00800013  RH  063%=      5-min Rain = 0
KBO1 131138Z 24014KT 08/01 A2999 RMK A01 T00800013  RH  062%=      5-min Rain = 0
KBO1 131139Z 24013KT 08/01 A2999 RMK A01 T00810013  RH  062%=      5-min Rain = 0
KBO1 131140Z 24014KT 08/01 A2999 RMK A01 T00810013  RH  062%=      5-min Rain = 0
KBO1 131141Z 24014KT 08/01 A2999 RMK A01 T00810013  RH  062%=      5-min Rain = 0
KBO1 131142Z 24013KT 08/01 A2999 RMK A01 T00800013  RH  063%=      5-min Rain = 0
KBO1 131143Z 24014KT 08/01 A2999 RMK A01 T00790013  RH  063%=      5-min Rain = 0
KBO1 131144Z 24014KT 08/01 A2999 RMK A01 T00790013  RH  063%=      5-min Rain = 0
KBO1 131145Z 24014KT 08/01 A2999 RMK A01 T00800013  RH  063%=      5-min Rain = 0
KBO1 131146Z 24013KT 08/01 A2999 RMK A01 T00800013  RH  063%=      5-min Rain = 0
KBO1 131147Z 24014KT 08/01 A2999 RMK A01 T00800013  RH  063%=      5-min Rain = 0
KBO1 131148Z 24013KT 08/01 A2999 RMK A01 T00790013  RH  063%=      5-min Rain = 0
KBO1 131149Z 24014KT 08/01 A2999 RMK A01 T00800013  RH  063%=      5-min Rain = 0
KBO1 131150Z 24013KT 08/01 A2999 RMK A01 T00800013  RH  063%=      5-min Rain = 0
KBO1 131151Z 24013KT 08/01 A2999 RMK A01 T00800013  RH  063%=      5-min Rain = 0
KBO1 131152Z 24013KT 08/01 A2999 RMK A01 T00800013  RH  063%=      5-min Rain = 0
KBO1 131153Z 24013KT 08/01 A2999 RMK A01 T00800014  RH  063%=      5-min Rain = 0
KBO1 131154Z 24013KT 08/01 A2999 RMK A01 T00800013  RH  063%=      5-min Rain = 0
KBO1 131155Z 24013KT 08/01 A2999 RMK A01 T00800013  RH  063%=      5-min Rain = 0
KBO1 131156Z 24013KT 08/01 A2999 RMK A01 T00800013  RH  063%=      5-min Rain = 0
KBO1 131157Z 24013KT 08/01 A2999 RMK A01 T00810014  RH  063%=      5-min Rain = 0
KBO1 131158Z 24013KT 08/01 A2999 RMK A01 T00800014  RH  063%=      5-min Rain = 0
KBO1 131159Z 24014KT 08/01 A2999 RMK A01 T00800013  RH  063%=      5-min Rain = 0
KBO1 131200Z 24013KT 08/01 A2999 RMK A01 T00800014  RH  063%=      5-min Rain = 0
KBO1 131201Z 24013KT 08/01 A30 RMK A01 T00800014  RH  063%=      5-min Rain = 0
KBO1 131202Z 24013KT 08/01 A2999 RMK A01 T00790013  RH  063%=      5-min Rain = 0
KBO1 131203Z 24012KT 08/01 A2999 RMK A01 T00790014  RH  063%=      5-min Rain = 0
KBO1 131204Z 24013KT 08/01 A30 RMK A01 T00790013  RH  063%=      5-min Rain = 0
KBO1 131205Z 24013KT 08/01 A30 RMK A01 T00780013  RH  064%=      5-min Rain = 0
KBO1 131206Z 24013KT 08/01 A30 RMK A01 T00780013  RH  064%=      5-min Rain = 0
KBO1 131207Z 24012KT 08/01 A30 RMK A01 T00770013  RH  064%=      5-min Rain = 0
KBO1 131208Z 24012KT 08/01 A30 RMK A01 T00770013  RH  064%=      5-min Rain = 0
KBO1 131209Z 24013KT 08/01 A30 RMK A01 T00760013  RH  064%=      5-min Rain = 0
KBO1 131210Z 24013KT 08/01 A30 RMK A01 T00760013  RH  064%=      5-min Rain = 0
KBO1 131211Z 24013KT 08/01 A30 RMK A01 T00770013  RH  064%=      5-min Rain = 0
KBO1 131212Z 24013KT 08/01 A30 RMK A01 T00770013  RH  064%=      5-min Rain = 0
KBO1 131213Z 24013KT 08/01 A30 RMK A01 T00780013  RH  064%=      5-min Rain = 0
KBO1 131214Z 24014KT 08/01 A30 RMK A01 T00770013  RH  063%=      5-min Rain = 0
KBO1 131215Z 24013KT 08/01 A30 RMK A01 T00780013  RH  063%=      5-min Rain = 0
KBO1 131216Z 25014KT 08/01 A30 RMK A01 T00780013  RH  063%=      5-min Rain = 0
KBO1 131217Z 25014KT 08/01 A30 RMK A01 T00780013  RH  063%=      5-min Rain = 0
KBO1 131218Z 25014KT 08/01 A30 RMK A01 T00790013  RH  063%=      5-min Rain = 0
KBO1 131219Z 24013KT 08/01 A30 RMK A01 T00800014  RH  063%=      5-min Rain = 0
KBO1 131220Z 25012KT 08/01 A30 RMK A01 T00810013  RH  063%=      5-min Rain = 0
KBO1 131221Z 25013KT 08/01 A30 RMK A01 T00810013  RH  062%=      5-min Rain = 0
KBO1 131222Z 25013KT 08/01 A30 RMK A01 T00820013  RH  062%=      5-min Rain = 0
KBO1 131223Z 25011KT 08/01 A30 RMK A01 T00830013  RH  062%=      5-min Rain = 0
KBO1 131224Z 27009KT 08/01 A30 RMK A01 T00830014  RH  062%=      5-min Rain = 0
KBO1 131225Z 32007KT 08/01 A3001 RMK A01 T00820013  RH  062%=      5-min Rain = 0
KBO1 131226Z 32008KT 08/01 A3001 RMK A01 T00760011  RH  063%=      5-min Rain = 0
KBO1 131227Z 30009KT 07/01 A3001 RMK A01 T00700010  RH  066%=      5-min Rain = 0
KBO1 131228Z 27010KT 07/01 A3001 RMK A01 T00710012  RH  066%=      5-min Rain = 0
KBO1 131229Z 26012KT 08/01 A30 RMK A01 T00750013  RH  065%=      5-min Rain = 0
KBO1 131230Z 25011KT 08/01 A30 RMK A01 T00790013  RH  063%=      5-min Rain = 0
KBO1 131231Z 26011KT 08/01 A3001 RMK A01 T00800013  RH  063%=      5-min Rain = 0
KBO1 131232Z 26010KT 08/01 A3001 RMK A01 T00800013  RH  063%=      5-min Rain = 0
KBO1 131233Z 27009KT 08/01 A3001 RMK A01 T00800013  RH  063%=      5-min Rain = 0
KBO1 131234Z 27009KT 08/01 A3001 RMK A01 T00790013  RH  063%=      5-min Rain = 0
KBO1 131235Z 26009KT 08/01 A3001 RMK A01 T00780013  RH  063%=      5-min Rain = 0
KBO1 131236Z 26010KT 08/01 A3001 RMK A01 T00760012  RH  064%=      5-min Rain = 0
KBO1 131237Z 26010KT 08/01 A3001 RMK A01 T00750012  RH  065%=      5-min Rain = 0
KBO1 131238Z 26010KT 07/01 A3001 RMK A01 T00740012  RH  065%=      5-min Rain = 0
KBO1 131239Z 25011KT 07/01 A3001 RMK A01 T00730012  RH  065%=      5-min Rain = 0
KBO1 131240Z 25011KT 07/01 A3001 RMK A01 T00720013  RH  066%=      5-min Rain = 0
KBO1 131241Z 25011KT 07/01 A3001 RMK A01 T00720012  RH  066%=      5-min Rain = 0
KBO1 131242Z 25010KT 07/01 A3001 RMK A01 T00710012  RH  066%=      5-min Rain = 0
KBO1 131243Z 25010KT 07/01 A3001 RMK A01 T00710013  RH  067%=      5-min Rain = 0
KBO1 131244Z 26010KT 07/01 A3001 RMK A01 T00710013  RH  067%=      5-min Rain = 0
KBO1 131245Z 25010KT 07/01 A3001 RMK A01 T00710012  RH  066%=      5-min Rain = 0
KBO1 131246Z 25009KT 07/01 A3001 RMK A01 T00710013  RH  066%=      5-min Rain = 0
KBO1 131247Z 25009KT 07/01 A3001 RMK A01 T00710013  RH  067%=      5-min Rain = 0
KBO1 131248Z 25010KT 07/01 A3001 RMK A01 T00690012  RH  067%=      5-min Rain = 0
KBO1 131249Z 25010KT 07/01 A3001 RMK A01 T00680012  RH  067%=      5-min Rain = 0
KBO1 131250Z 25010KT 07/01 A3001 RMK A01 T00680012  RH  068%=      5-min Rain = 0
KBO1 131251Z 25010KT 07/01 A3001 RMK A01 T00680012  RH  068%=      5-min Rain = 0
KBO1 131252Z 25010KT 07/01 A3001 RMK A01 T00680013  RH  068%=      5-min Rain = 0
KBO1 131253Z 25011KT 07/01 A3001 RMK A01 T00680013  RH  068%=      5-min Rain = 0
KBO1 131254Z 25011KT 07/01 A3001 RMK A01 T00690013  RH  067%=      5-min Rain = 0
KBO1 131255Z 25012KT 07/01 A3001 RMK A01 T00690013  RH  067%=      5-min Rain = 0
KBO1 131256Z 25011KT 07/01 A3001 RMK A01 T00690012  RH  067%=      5-min Rain = 0
KBO1 131257Z 25011KT 07/01 A3001 RMK A01 T00690012  RH  067%=      5-min Rain = 0
KBO1 131258Z 25012KT 07/01 A3001 RMK A01 T00690013  RH  067%=      5-min Rain = 0
KBO1 131259Z 25012KT 07/01 A3001 RMK A01 T00690013  RH  067%=      5-min Rain = 0
KBO1 131300Z 25012KT 07/01 A3001 RMK A01 T00680012  RH  068%=      5-min Rain = 0
KBO1 131301Z 25012KT 07/01 A3001 RMK A01 T00680012  RH  068%=      5-min Rain = 0
KBO1 131302Z 25012KT 07/01 A3001 RMK A01 T00670012  RH  068%=      5-min Rain = 0
KBO1 131303Z 26012KT 07/01 A3001 RMK A01 T00670012  RH  068%=      5-min Rain = 0
KBO1 131304Z 26012KT 07/01 A3001 RMK A01 T00670012  RH  068%=      5-min Rain = 0
KBO1 131305Z 26013KT 07/01 A3001 RMK A01 T00670012  RH  068%=      5-min Rain = 0
KBO1 131306Z 25012KT 07/01 A3001 RMK A01 T00670012  RH  068%=      5-min Rain = 0
KBO1 131307Z 25012KT 07/01 A3001 RMK A01 T00670012  RH  068%=      5-min Rain = 0
KBO1 131308Z 26012KT 07/01 A3001 RMK A01 T00680012  RH  068%=      5-min Rain = 0
KBO1 131309Z 26013KT 07/01 A3001 RMK A01 T00680013  RH  068%=      5-min Rain = 0
KBO1 131310Z 26013KT 07/01 A3001 RMK A01 T00680013  RH  068%=      5-min Rain = 0
KBO1 131311Z 26012KT 07/01 A3001 RMK A01 T00700013  RH  067%=      5-min Rain = 0
KBO1 131312Z 26013KT 07/01 A3001 RMK A01 T00710013  RH  066%=      5-min Rain = 0
KBO1 131313Z 26013KT 07/01 A3001 RMK A01 T00720013  RH  066%=      5-min Rain = 0
KBO1 131314Z 26013KT 07/01 A3001 RMK A01 T00730013  RH  065%=      5-min Rain = 0
KBO1 131315Z 26013KT 07/01 A3001 RMK A01 T00740013  RH  065%=      5-min Rain = 0
KBO1 131316Z 26013KT 08/01 A3001 RMK A01 T00760013  RH  064%=      5-min Rain = 0
KBO1 131317Z 26013KT 08/01 A3001 RMK A01 T00770013  RH  064%=      5-min Rain = 0
KBO1 131318Z 26013KT 08/01 A3001 RMK A01 T00780013  RH  064%=      5-min Rain = 0
KBO1 131319Z 26013KT 08/01 A3001 RMK A01 T00780013  RH  063%=      5-min Rain = 0
KBO1 131320Z 26013KT 08/01 A3001 RMK A01 T00790013  RH  063%=      5-min Rain = 0
KBO1 131321Z 26012KT 08/01 A3001 RMK A01 T00800013  RH  063%=      5-min Rain = 0
KBO1 131322Z 26012KT 08/01 A3001 RMK A01 T00800013  RH  063%=      5-min Rain = 0
KBO1 131323Z 26011KT 08/01 A3001 RMK A01 T00790014  RH  063%=      5-min Rain = 0
KBO1 131324Z 26011KT 08/01 A3001 RMK A01 T00790014  RH  064%=      5-min Rain = 0
KBO1 131325Z 26011KT 08/01 A3001 RMK A01 T00780014  RH  064%=      5-min Rain = 0
KBO1 131326Z 26011KT 08/01 A3001 RMK A01 T00780014  RH  064%=      5-min Rain = 0
KBO1 131327Z 26011KT 08/01 A3001 RMK A01 T00770014  RH  064%=      5-min Rain = 0
KBO1 131328Z 26011KT 08/01 A3001 RMK A01 T00770013  RH  064%=      5-min Rain = 0
KBO1 131329Z 26011KT 08/01 A3001 RMK A01 T00770013  RH  064%=      5-min Rain = 0
KBO1 131330Z 26011KT 08/01 A3001 RMK A01 T00780014  RH  064%=      5-min Rain = 0
KBO1 131331Z 26012KT 08/02 A3001 RMK A01 T00790015  RH  064%=      5-min Rain = 0
KBO1 131332Z 26012KT 08/02 A3001 RMK A01 T00800015  RH  063%=      5-min Rain = 0
KBO1 131333Z 26012KT 08/02 A3001 RMK A01 T00820015  RH  063%=      5-min Rain = 0
KBO1 131334Z 26012KT 08/02 A3001 RMK A01 T00830015  RH  062%=      5-min Rain = 0
KBO1 131335Z 26011KT 08/02 A3001 RMK A01 T00840015  RH  062%=      5-min Rain = 0
KBO1 131336Z 26011KT 09/02 A3001 RMK A01 T00850015  RH  062%=      5-min Rain = 0
KBO1 131337Z 26012KT 09/02 A3001 RMK A01 T00850016  RH  062%=      5-min Rain = 0
KBO1 131338Z 25011KT 09/02 A3001 RMK A01 T00870016  RH  061%=      5-min Rain = 0
KBO1 131339Z 25011KT 09/02 A3001 RMK A01 T00870017  RH  061%=      5-min Rain = 0
KBO1 131340Z 26011KT 09/02 A3001 RMK A01 T00880017  RH  061%=      5-min Rain = 0
KBO1 131341Z 25012KT 09/02 A3001 RMK A01 T00880017  RH  061%=      5-min Rain = 0
KBO1 131342Z 26012KT 09/02 A3001 RMK A01 T00880017  RH  061%=      5-min Rain = 0
KBO1 131343Z 25012KT 09/02 A3001 RMK A01 T00900017  RH  061%=      5-min Rain = 0
KBO1 131344Z 26013KT 09/02 A3001 RMK A01 T00910018  RH  060%=      5-min Rain = 0
KBO1 131345Z 25011KT 09/02 A3001 RMK A01 T00930018  RH  059%=      5-min Rain = 0
KBO1 131346Z 25012KT 10/02 A3001 RMK A01 T00950019  RH  059%=      5-min Rain = 0
KBO1 131347Z 25012KT 10/02 A3001 RMK A01 T00970019  RH  058%=      5-min Rain = 0
KBO1 131348Z 25013KT 10/02 A3001 RMK A01 T00990019  RH  057%=      5-min Rain = 0
KBO1 131349Z 25013KT 10/02 A3001 RMK A01 T01020019  RH  056%=      5-min Rain = 0
KBO1 131350Z 25012KT 10/02 A3001 RMK A01 T01040019  RH  056%=      5-min Rain = 0
KBO1 131351Z 25013KT 11/02 A3002 RMK A01 T01050019  RH  055%=      5-min Rain = 0
KBO1 131352Z 25012KT 11/02 A3002 RMK A01 T01060019  RH  055%=      5-min Rain = 0
KBO1 131353Z 25013KT 11/02 A3002 RMK A01 T01060018  RH  055%=      5-min Rain = 0
KBO1 131354Z 25013KT 11/02 A3002 RMK A01 T01060018  RH  054%=      5-min Rain = 0
KBO1 131355Z 25013KT 11/02 A3002 RMK A01 T01070019  RH  055%=      5-min Rain = 0
KBO1 131356Z 25013KT 11/02 A3002 RMK A01 T01070019  RH  055%=      5-min Rain = 0
KBO1 131357Z 25012KT 11/02 A3002 RMK A01 T01070020  RH  055%=      5-min Rain = 0
KBO1 131358Z 24013KT 11/02 A3002 RMK A01 T01070020  RH  055%=      5-min Rain = 0
KBO1 131359Z 24012KT 11/02 A3002 RMK A01 T01080019  RH  054%=      5-min Rain = 0
KBO1 131400Z 24012KT 11/02 A3002 RMK A01 T01090020  RH  054%=      5-min Rain = 0
KBO1 131401Z 25012KT 11/02 A3002 RMK A01 T01100020  RH  054%=      5-min Rain = 0
KBO1 131402Z 24013KT 11/02 A3002 RMK A01 T01100020  RH  053%=      5-min Rain = 0
KBO1 131403Z 24012KT 11/02 A3002 RMK A01 T01110020  RH  053%=      5-min Rain = 0
KBO1 131404Z 24013KT 11/02 A3002 RMK A01 T01120020  RH  053%=      5-min Rain = 0
KBO1 131405Z 25013KT 11/02 A3002 RMK A01 T01130021  RH  053%=      5-min Rain = 0
KBO1 131406Z 25013KT 11/02 A3002 RMK A01 T01140021  RH  053%=      5-min Rain = 0
KBO1 131407Z 25013KT 12/02 A3002 RMK A01 T01150020  RH  052%=      5-min Rain = 0
KBO1 131408Z 25012KT 12/02 A3002 RMK A01 T01160021  RH  052%=      5-min Rain = 0
KBO1 131409Z 25012KT 12/02 A3002 RMK A01 T01180022  RH  052%=      5-min Rain = 0
KBO1 131410Z 25012KT 12/02 A3002 RMK A01 T01190021  RH  051%=      5-min Rain = 0
KBO1 131411Z 25013KT 12/02 A3002 RMK A01 T01200020  RH  051%=      5-min Rain = 0
KBO1 131412Z 25012KT 12/02 A3002 RMK A01 T01200021  RH  051%=      5-min Rain = 0
KBO1 131413Z 25013KT 12/02 A3002 RMK A01 T01210021  RH  050%=      5-min Rain = 0
KBO1 131414Z 25013KT 12/02 A3002 RMK A01 T01220021  RH  050%=      5-min Rain = 0
KBO1 131415Z 25011KT 12/02 A3002 RMK A01 T01220021  RH  050%=      5-min Rain = 0
KBO1 131416Z 25011KT 12/02 A3003 RMK A01 T01240023  RH  050%=      5-min Rain = 0
KBO1 131417Z 25012KT 13/02 A3003 RMK A01 T01250023  RH  050%=      5-min Rain = 0
KBO1 131418Z 25011KT 13/02 A3003 RMK A01 T01260022  RH  049%=      5-min Rain = 0
KBO1 131419Z 25011KT 13/02 A3003 RMK A01 T01270024  RH  049%=      5-min Rain = 0
KBO1 131420Z 25012KT 13/02 A3003 RMK A01 T01280023  RH  049%=      5-min Rain = 0
KBO1 131421Z 25011KT 13/02 A3003 RMK A01 T01300024  RH  049%=      5-min Rain = 0
KBO1 131422Z 25012KT 13/02 A3003 RMK A01 T01310023  RH  048%=      5-min Rain = 0
KBO1 131423Z 25011KT 13/02 A3003 RMK A01 T01310024  RH  048%=      5-min Rain = 0
KBO1 131424Z 25010KT 13/03 A3003 RMK A01 T01330025  RH  048%=      5-min Rain = 0
KBO1 131425Z 25011KT 13/03 A3003 RMK A01 T01340026  RH  048%=      5-min Rain = 0
KBO1 131426Z 25012KT 14/02 A3003 RMK A01 T01350024  RH  047%=      5-min Rain = 0
KBO1 131427Z 25012KT 14/02 A3003 RMK A01 T01360022  RH  046%=      5-min Rain = 0
KBO1 131428Z 25011KT 14/02 A3003 RMK A01 T01370024  RH  047%=      5-min Rain = 0
KBO1 131429Z 25010KT 14/03 A3003 RMK A01 T01380025  RH  046%=      5-min Rain = 0
KBO1 131430Z 25011KT 14/03 A3003 RMK A01 T01390027  RH  047%=      5-min Rain = 0
KBO1 131431Z 25012KT 14/03 A3003 RMK A01 T01400026  RH  046%=      5-min Rain = 0
KBO1 131432Z 25012KT 14/03 A3003 RMK A01 T01410025  RH  045%=      5-min Rain = 0
KBO1 131433Z 25011KT 14/03 A3003 RMK A01 T01420025  RH  045%=      5-min Rain = 0
KBO1 131434Z 25012KT 14/02 A3003 RMK A01 T01420023  RH  045%=      5-min Rain = 0
KBO1 131435Z 25013KT 14/02 A3003 RMK A01 T01430023  RH  044%=      5-min Rain = 0
KBO1 131436Z 25012KT 14/02 A3003 RMK A01 T01440023  RH  044%=      5-min Rain = 0
KBO1 131437Z 25010KT 15/02 A3003 RMK A01 T01450023  RH  044%=      5-min Rain = 0
KBO1 131438Z 25011KT 15/03 A3003 RMK A01 T01470025  RH  044%=      5-min Rain = 0
KBO1 131439Z 25011KT 15/03 A3003 RMK A01 T01480026  RH  044%=      5-min Rain = 0
KBO1 131440Z 25010KT 15/03 A3003 RMK A01 T01490026  RH  044%=      5-min Rain = 0
KBO1 131441Z 25012KT 15/03 A3003 RMK A01 T01500026  RH  043%=      5-min Rain = 0
KBO1 131442Z 26012KT 15/02 A3003 RMK A01 T01510024  RH  042%=      5-min Rain = 0
KBO1 131443Z 25012KT 15/02 A3003 RMK A01 T01520022  RH  042%=      5-min Rain = 0
KBO1 131444Z 25013KT 15/02 A3004 RMK A01 T01530022  RH  041%=      5-min Rain = 0
KBO1 131445Z 25012KT 15/02 A3004 RMK A01 T01540022  RH  041%=      5-min Rain = 0
KBO1 131446Z 25012KT 15/02 A3004 RMK A01 T01540023  RH  041%=      5-min Rain = 0
KBO1 131447Z 25012KT 15/02 A3004 RMK A01 T01540021  RH  041%=      5-min Rain = 0
KBO1 131448Z 25011KT 16/02 A3004 RMK A01 T01550020  RH  040%=      5-min Rain = 0
KBO1 131449Z 25011KT 16/02 A3004 RMK A01 T01570022  RH  040%=      5-min Rain = 0
KBO1 131450Z 25012KT 16/02 A3004 RMK A01 T01580022  RH  040%=      5-min Rain = 0
KBO1 131451Z 25012KT 16/02 A3004 RMK A01 T01580021  RH  040%=      5-min Rain = 0
KBO1 131452Z 24012KT 16/02 A3004 RMK A01 T01590022  RH  040%=      5-min Rain = 0
KBO1 131453Z 24014KT 16/02 A3004 RMK A01 T01610020  RH  039%=      5-min Rain = 0
KBO1 131454Z 24012KT 16/02 A3004 RMK A01 T01610018  RH  038%=      5-min Rain = 0
KBO1 131455Z 24010KT 16/03 A3004 RMK A01 T01630025  RH  039%=      5-min Rain = 0
KBO1 131456Z 24014KT 17/02 A3004 RMK A01 T01650022  RH  038%=      5-min Rain = 0
KBO1 131457Z 24013KT 17/02 A3004 RMK A01 T01660019  RH  037%=      5-min Rain = 0
KBO1 131458Z 24013KT 17/02 A3004 RMK A01 T01660018  RH  037%=      5-min Rain = 0
KBO1 131459Z 23013KT 17/02 A3004 RMK A01 T01660020  RH  037%=      5-min Rain = 0
KBO1 131500Z 23012KT 17/02 A3004 RMK A01 T01660019  RH  037%=      5-min Rain = 0
KBO1 131501Z 24013KT 17/02 A3004 RMK A01 T01670020  RH  037%=      5-min Rain = 0
KBO1 131502Z 24011KT 17/02 A3004 RMK A01 T01670019  RH  037%=      5-min Rain = 0
KBO1 131503Z 23010KT 17/03 A3005 RMK A01 T01680025  RH  038%=      5-min Rain = 0
KBO1 131504Z 24012KT 17/03 A3005 RMK A01 T01700025  RH  038%=      5-min Rain = 0
KBO1 131505Z 24012KT 17/02 A3005 RMK A01 T01700021  RH  037%=      5-min Rain = 0
KBO1 131506Z 24011KT 17/02 A3005 RMK A01 T01690020  RH  037%=      5-min Rain = 0
KBO1 131507Z 24012KT 17/02 A3005 RMK A01 T01690022  RH  037%=      5-min Rain = 0
KBO1 131508Z 24011KT 17/02 A3005 RMK A01 T01700022  RH  037%=      5-min Rain = 0
KBO1 131509Z 24011KT 17/02 A3005 RMK A01 T01710022  RH  037%=      5-min Rain = 0
KBO1 131510Z 24010KT 17/02 A3005 RMK A01 T01710022  RH  037%=      5-min Rain = 0
KBO1 131511Z 25010KT 17/02 A3005 RMK A01 T01720024  RH  037%=      5-min Rain = 0
KBO1 131512Z 25012KT 17/02 A3005 RMK A01 T01740023  RH  036%=      5-min Rain = 0
KBO1 131513Z 24013KT 17/02 A3005 RMK A01 T01730021  RH  036%=      5-min Rain = 0
KBO1 131514Z 24012KT 17/02 A3005 RMK A01 T01730021  RH  036%=      5-min Rain = 0
KBO1 131515Z 25010KT 17/02 A3005 RMK A01 T01720023  RH  037%=      5-min Rain = 0
KBO1 131516Z 24010KT 17/03 A3005 RMK A01 T01740027  RH  037%=      5-min Rain = 0
KBO1 131517Z 24011KT 18/03 A3005 RMK A01 T01750025  RH  037%=      5-min Rain = 0
KBO1 131518Z 25011KT 18/02 A3005 RMK A01 T01750024  RH  036%=      5-min Rain = 0
KBO1 131519Z 25010KT 18/03 A3005 RMK A01 T01750025  RH  037%=      5-min Rain = 0
KBO1 131520Z 26010KT 18/03 A3005 RMK A01 T01750025  RH  037%=      5-min Rain = 0
KBO1 131521Z 25009KT 18/03 A3005 RMK A01 T01760026  RH  037%=      5-min Rain = 0
KBO1 131522Z 25010KT 18/03 A3005 RMK A01 T01780026  RH  036%=      5-min Rain = 0
KBO1 131523Z 26009KT 18/03 A3005 RMK A01 T01800025  RH  036%=      5-min Rain = 0
KBO1 131524Z 26010KT 18/02 A3005 RMK A01 T01820022  RH  034%=      5-min Rain = 0
KBO1 131525Z 26010KT 18/02 A3006 RMK A01 T01830023  RH  034%=      5-min Rain = 0
KBO1 131526Z 26010KT 18/02 A3005 RMK A01 T01830018  RH  033%=      5-min Rain = 0
KBO1 131527Z 26010KT 18/02 A3006 RMK A01 T01840020  RH  033%=      5-min Rain = 0
KBO1 131528Z 27011KT 19/02 A3006 RMK A01 T01850017  RH  032%=      5-min Rain = 0
KBO1 131529Z 26012KT 19/02 A3005 RMK A01 T01860015  RH  032%=      5-min Rain = 0
KBO1 131530Z 26011KT 18/02 A3005 RMK A01 T01840015  RH  032%=      5-min Rain = 0
KBO1 131531Z 26010KT 18/02 A3005 RMK A01 T01840018  RH  033%=      5-min Rain = 0
KBO1 131532Z 26009KT 18/02 A3005 RMK A01 T01840019  RH  033%=      5-min Rain = 0
KBO1 131533Z 26009KT 18/02 A3005 RMK A01 T01840022  RH  034%=      5-min Rain = 0
KBO1 131534Z 26011KT 19/02 A3005 RMK A01 T01850018  RH  033%=      5-min Rain = 0
KBO1 131535Z 26010KT 19/02 A3005 RMK A01 T01860016  RH  032%=      5-min Rain = 0
KBO1 131536Z 27010KT 19/01 A3005 RMK A01 T01870012  RH  031%=      5-min Rain = 0
KBO1 131537Z 28008KT 19/01 A3005 RMK A01 T01890011  RH  030%=      5-min Rain = 0
KBO1 131538Z 26008KT 19/01 A3005 RMK A01 T01920014  RH  030%=      5-min Rain = 0
KBO1 131539Z 26010KT 19/02 A3005 RMK A01 T01940016  RH  031%=      5-min Rain = 0
KBO1 131540Z 27011KT 20/01 A3005 RMK A01 T01950012  RH  029%=      5-min Rain = 0
KBO1 131541Z 27011KT 19/02 A3005 RMK A01 T01940015  RH  030%=      5-min Rain = 0
KBO1 131542Z 27011KT 20/01 A3005 RMK A01 T01950008  RH  029%=      5-min Rain = 0
KBO1 131543Z 27011KT 20/00 A3005 RMK A01 T01960004  RH  028%=      5-min Rain = 0
KBO1 131544Z 27010KT 20/00 A3005 RMK A01 T01960004  RH  028%=      5-min Rain = 0
KBO1 131545Z 27010KT 20/00 A3005 RMK A01 T01950001  RH  027%=      5-min Rain = 0
KBO1 131546Z 27012KT 20/00 A3005 RMK A01 T01950004  RH  028%=      5-min Rain = 0
KBO1 131547Z 27012KT 20/00 A3005 RMK A01 T01960004  RH  028%=      5-min Rain = 0
KBO1 131548Z 27012KT 20/00 A3005 RMK A01 T01970004  RH  027%=      5-min Rain = 0
KBO1 131549Z 27011KT 20/00 A3005 RMK A01 T01960003  RH  027%=      5-min Rain = 0
KBO1 131550Z 29010KT 20/01 A3005 RMK A01 T01960005  RH  028%=      5-min Rain = 0
KBO1 131551Z 28009KT 20/01 A3005 RMK A01 T01980005  RH  027%=      5-min Rain = 0
KBO1 131552Z 27012KT 20/01 A3005 RMK A01 T01990007  RH  028%=      5-min Rain = 0
KBO1 131553Z 28010KT 20/00 A3005 RMK A01 T02000002  RH  027%=      5-min Rain = 0
KBO1 131554Z 29010KT 20/01 A3005 RMK A01 T02020005  RH  027%=      5-min Rain = 0
KBO1 131555Z 29011KT 20/00 A3005 RMK A01 T02040003  RH  026%=      5-min Rain = 0
KBO1 131556Z 29011KT 20/00 A3005 RMK A01 T02030003  RH  026%=      5-min Rain = 0
KBO1 131557Z 28012KT 20/01 A3005 RMK A01 T02040005  RH  026%=      5-min Rain = 0
KBO1 131558Z 29010KT 20/00 A3005 RMK A01 T02040002  RH  026%=      5-min Rain = 0
KBO1 131559Z 29009KT 20/00 A3005 RMK A01 T02030002  RH  026%=      5-min Rain = 0
KBO1 131600Z 28010KT 20/00 A3005 RMK A01 T02030000  RH  026%=      5-min Rain = 0
KBO1 131601Z 28011KT 20/00 A3005 RMK A01 T02030003  RH  026%=      5-min Rain = 0
KBO1 131602Z 28009KT 20/00 A3006 RMK A01 T02040004  RH  026%=      5-min Rain = 0
KBO1 131603Z 27009KT 21/01 A3006 RMK A01 T02050005  RH  026%=      5-min Rain = 0
KBO1 131604Z 28010KT 21/00 A3006 RMK A01 T02050001  RH  025%=      5-min Rain = 0
KBO1 131605Z 30009KT 21/00 A3006 RMK A01 T02060003  RH  026%=      5-min Rain = 0
KBO1 131606Z 29010KT 21/M00 A3006 RMK A01 T02091004  RH  024%=      5-min Rain = 0
KBO1 131607Z 29009KT 21/M00 A3006 RMK A01 T02101004  RH  024%=      5-min Rain = 0
KBO1 131608Z 31009KT 21/M00 A3006 RMK A01 T02111001  RH  024%=      5-min Rain = 0
KBO1 131609Z 31007KT 21/M00 A3006 RMK A01 T02091003  RH  024%=      5-min Rain = 0
KBO1 131610Z 32009KT 21/M00 A3006 RMK A01 T02091001  RH  024%=      5-min Rain = 0
KBO1 131611Z 31009KT 21/M00 A3006 RMK A01 T02091001  RH  025%=      5-min Rain = 0
KBO1 131612Z 31007KT 21/M00 A3006 RMK A01 T02101002  RH  024%=      5-min Rain = 0
KBO1 131613Z 31006KT 21/00 A3006 RMK A01 T02100002  RH  025%=      5-min Rain = 0
KBO1 131614Z 31008KT 21/00 A3006 RMK A01 T02120001  RH  025%=      5-min Rain = 0
KBO1 131615Z 32011KT 21/M00 A3006 RMK A01 T02131003  RH  024%=      5-min Rain = 0
KBO1 131616Z 32008KT 21/M01 A3006 RMK A01 T02121007  RH  023%=      5-min Rain = 0
KBO1 131617Z 30010KT 21/M00 A3006 RMK A01 T02101004  RH  024%=      5-min Rain = 0
KBO1 131618Z 30008KT 21/M00 A3006 RMK A01 T02101002  RH  024%=      5-min Rain = 0
KBO1 131619Z 28005KT 21/00 A3006 RMK A01 T02100001  RH  025%=      5-min Rain = 0
KBO1 131620Z 30005KT 21/00 A3006 RMK A01 T02120002  RH  025%=      5-min Rain = 0
KBO1 131621Z 31009KT 21/M01 A3006 RMK A01 T02131005  RH  023%=      5-min Rain = 0
KBO1 131622Z 30010KT 21/M01 A3006 RMK A01 T02131010  RH  022%=      5-min Rain = 0
KBO1 131623Z 32010KT 21/M01 A3006 RMK A01 T02131009  RH  023%=      5-min Rain = 0
KBO1 131624Z 32011G16KT 21/M02 A3006 RMK A01 T02141016  RH  021%=      5-min Rain = 0
KBO1 131625Z 30013KT 21/M02 A3006 RMK A01 T02141017  RH  021%=      5-min Rain = 0
KBO1 131626Z 30011KT 22/M02 A3006 RMK A01 T02151019  RH  021%=      5-min Rain = 0
KBO1 131627Z 30009KT 21/M02 A3006 RMK A01 T02131016  RH  022%=      5-min Rain = 0
KBO1 131628Z 31011KT 21/M02 A3006 RMK A01 T02121016  RH  022%=      5-min Rain = 0
KBO1 131629Z 31010KT 21/M02 A3006 RMK A01 T02121017  RH  021%=      5-min Rain = 0
KBO1 131630Z 30009KT 21/M02 A3006 RMK A01 T02131015  RH  022%=      5-min Rain = 0
KBO1 131631Z 30009KT 21/M02 A3006 RMK A01 T02131016  RH  021%=      5-min Rain = 0
KBO1 131632Z 31010KT 21/M01 A3006 RMK A01 T02131010  RH  022%=      5-min Rain = 0
KBO1 131633Z 31011KT 21/M01 A3006 RMK A01 T02141014  RH  022%=      5-min Rain = 0
KBO1 131634Z 31009KT 21/M02 A3006 RMK A01 T02141018  RH  021%=      5-min Rain = 0
KBO1 131635Z 31008KT 21/M02 A3006 RMK A01 T02121015  RH  022%=      5-min Rain = 0
KBO1 131636Z 32007KT 21/M02 A3006 RMK A01 T02121020  RH  021%=      5-min Rain = 0
KBO1 131637Z 30007KT 21/M02 A3006 RMK A01 T02111017  RH  021%=      5-min Rain = 0
KBO1 131638Z 31012KT 21/M01 A3006 RMK A01 T02121014  RH  022%=      5-min Rain = 0
KBO1 131639Z 31008KT 21/M01 A3006 RMK A01 T02141010  RH  022%=      5-min Rain = 0
KBO1 131640Z 30010KT 22/M01 A3006 RMK A01 T02151011  RH  022%=      5-min Rain = 0
KBO1 131641Z 30008KT 22/M02 A3006 RMK A01 T02151015  RH  021%=      5-min Rain = 0
KBO1 131642Z 30010KT 22/M01 A3006 RMK A01 T02161013  RH  022%=      5-min Rain = 0
KBO1 131643Z 31007KT 22/M02 A3006 RMK A01 T02161016  RH  021%=      5-min Rain = 0
KBO1 131644Z 29005KT 22/M02 A3006 RMK A01 T02161016  RH  021%=      5-min Rain = 0
KBO1 131645Z 27006KT 22/M02 A3006 RMK A01 T02161015  RH  021%=      5-min Rain = 0
KBO1 131646Z 28006KT 22/M02 A3006 RMK A01 T02171017  RH  021%=      5-min Rain = 0
KBO1 131647Z 27005KT 22/M02 A3006 RMK A01 T02161022  RH  020%=      5-min Rain = 0
KBO1 131648Z 26005KT 22/M02 A3006 RMK A01 T02151019  RH  021%=      5-min Rain = 0
KBO1 131649Z 29009KT 22/M02 A3006 RMK A01 T02151019  RH  021%=      5-min Rain = 0
KBO1 131650Z 30008KT 22/M02 A3006 RMK A01 T02191020  RH  020%=      5-min Rain = 0
KBO1 131651Z 30006KT 22/M02 A3006 RMK A01 T02211019  RH  020%=      5-min Rain = 0
KBO1 131652Z 30009KT 22/M03 A3006 RMK A01 T02241025  RH  019%=      5-min Rain = 0
KBO1 131653Z 30007KT 22/M03 A3006 RMK A01 T02241029  RH  018%=      5-min Rain = 0
KBO1 131654Z 29010KT 22/M02 A3006 RMK A01 T02241024  RH  019%=      5-min Rain = 0
KBO1 131655Z 30009KT 23/M02 A3006 RMK A01 T02261024  RH  019%=      5-min Rain = 0
KBO1 131656Z 30012KT 23/M03 A3006 RMK A01 T02271025  RH  018%=      5-min Rain = 0
KBO1 131657Z 30009KT 23/M03 A3006 RMK A01 T02261031  RH  018%=      5-min Rain = 0
KBO1 131658Z 30009KT 22/M03 A3005 RMK A01 T02241032  RH  018%=      5-min Rain = 0
KBO1 131659Z 32011KT 23/M03 A3005 RMK A01 T02251028  RH  018%=      5-min Rain = 0
KBO1 131700Z 32012KT 23/M03 A3005 RMK A01 T02251034  RH  018%=      5-min Rain = 0
KBO1 131701Z 32014KT 22/M03 A3005 RMK A01 T02241032  RH  018%=      5-min Rain = 0
KBO1 131702Z 31011KT 22/M03 A3005 RMK A01 T02241034  RH  018%=      5-min Rain = 0
KBO1 131703Z 31009G15KT 22/M03 A3005 RMK A01 T02231034  RH  018%=      5-min Rain = 0
KBO1 131704Z 30014KT 22/M03 A3005 RMK A01 T02241032  RH  018%=      5-min Rain = 0
KBO1 131705Z 30011KT 22/M04 A3006 RMK A01 T02241038  RH  017%=      5-min Rain = 0
KBO1 131706Z 32008KT 22/M04 A3006 RMK A01 T02211035  RH  018%=      5-min Rain = 0
KBO1 131707Z 31012KT 22/M04 A3005 RMK A01 T02221036  RH  018%=      5-min Rain = 0
KBO1 131708Z 32013KT 22/M03 A3005 RMK A01 T02231031  RH  018%=      5-min Rain = 0
KBO1 131709Z 32013KT 23/M03 A3006 RMK A01 T02251032  RH  018%=      5-min Rain = 0
KBO1 131710Z 32012KT 23/M04 A3006 RMK A01 T02261035  RH  017%=      5-min Rain = 0
KBO1 131711Z 32010KT 23/M04 A3006 RMK A01 T02251036  RH  017%=      5-min Rain = 0
KBO1 131712Z 32009KT 22/M03 A3005 RMK A01 T02241033  RH  018%=      5-min Rain = 0
KBO1 131713Z 30012KT 23/M03 A3005 RMK A01 T02251031  RH  018%=      5-min Rain = 0
KBO1 131714Z 29009KT 23/M04 A3005 RMK A01 T02261036  RH  017%=      5-min Rain = 0
KBO1 131715Z 30008KT 22/M04 A3005 RMK A01 T02241035  RH  017%=      5-min Rain = 0
KBO1 131716Z 32010KT 22/M03 A3005 RMK A01 T02241032  RH  018%=      5-min Rain = 0
KBO1 131717Z 32014KT 23/M03 A3005 RMK A01 T02261031  RH  018%=      5-min Rain = 0
KBO1 131718Z 32012KT 23/M04 A3005 RMK A01 T02261038  RH  017%=      5-min Rain = 0
KBO1 131719Z 32009KT 23/M04 A3005 RMK A01 T02261035  RH  017%=      5-min Rain = 0
KBO1 131720Z 31010G15KT 23/M03 A3005 RMK A01 T02261034  RH  017%=      5-min Rain = 0
KBO1 131721Z 30011KT 23/M04 A3005 RMK A01 T02251036  RH  017%=      5-min Rain = 0
KBO1 131722Z 31011KT 22/M03 A3005 RMK A01 T02241030  RH  018%=      5-min Rain = 0
KBO1 131723Z 32010KT 23/M03 A3005 RMK A01 T02251031  RH  018%=      5-min Rain = 0
KBO1 131724Z 32013KT 23/M03 A3005 RMK A01 T02261031  RH  018%=      5-min Rain = 0
KBO1 131725Z 31012KT 23/M03 A3005 RMK A01 T02271029  RH  018%=      5-min Rain = 0
KBO1 131726Z 30011KT 23/M03 A3005 RMK A01 T02271029  RH  018%=      5-min Rain = 0
KBO1 131727Z 32012KT 23/M03 A3005 RMK A01 T02261029  RH  018%=      5-min Rain = 0
KBO1 131728Z 32009KT 23/M03 A3005 RMK A01 T02271028  RH  018%=      5-min Rain = 0
KBO1 131729Z 32008KT 23/M03 A3005 RMK A01 T02281027  RH  018%=      5-min Rain = 0
KBO1 131730Z 32010KT 23/M03 A3005 RMK A01 T02271026  RH  018%=      5-min Rain = 0
KBO1 131731Z 32007KT 23/M02 A3005 RMK A01 T02281022  RH  019%=      5-min Rain = 0
KBO1 131732Z 33008KT 23/M03 A3005 RMK A01 T02291026  RH  018%=      5-min Rain = 0
KBO1 131733Z 33011KT 23/M02 A3005 RMK A01 T02291019  RH  019%=      5-min Rain = 0
KBO1 131734Z 33014KT 23/M02 A3005 RMK A01 T02301021  RH  019%=      5-min Rain = 0
KBO1 131735Z 33011KT 23/M03 A3005 RMK A01 T02291026  RH  018%=      5-min Rain = 0
KBO1 131736Z 34012KT 23/M03 A3005 RMK A01 T02271027  RH  018%=      5-min Rain = 0
KBO1 131737Z 33010KT 23/M03 A3005 RMK A01 T02271033  RH  017%=      5-min Rain = 0
KBO1 131738Z 33011KT 23/M03 A3005 RMK A01 T02271031  RH  018%=      5-min Rain = 0
KBO1 131739Z 33010KT 23/M03 A3005 RMK A01 T02301026  RH  018%=      5-min Rain = 0
KBO1 131740Z 32011KT 23/M03 A3005 RMK A01 T02321029  RH  017%=      5-min Rain = 0
KBO1 131741Z 33012KT 23/M03 A3005 RMK A01 T02311027  RH  018%=      5-min Rain = 0
KBO1 131742Z 33012KT 23/M03 A3005 RMK A01 T02311025  RH  018%=      5-min Rain = 0
KBO1 131743Z 32010KT 23/M03 A3005 RMK A01 T02311027  RH  018%=      5-min Rain = 0
KBO1 131744Z 32007KT 23/M03 A3005 RMK A01 T02311028  RH  018%=      5-min Rain = 0
KBO1 131745Z 32011KT 23/M02 A3005 RMK A01 T02301024  RH  018%=      5-min Rain = 0
KBO1 131746Z 31009KT 23/M02 A3005 RMK A01 T02301021  RH  019%=      5-min Rain = 0
KBO1 131747Z 31008KT 23/M02 A3005 RMK A01 T02291021  RH  019%=      5-min Rain = 0
KBO1 131748Z 31006KT 23/M02 A3005 RMK A01 T02301022  RH  019%=      5-min Rain = 0
KBO1 131749Z 34009KT 23/M02 A3005 RMK A01 T02301018  RH  019%=      5-min Rain = 0
KBO1 131750Z 32012KT 23/M02 A3005 RMK A01 T02321022  RH  018%=      5-min Rain = 0
KBO1 131751Z 34010KT 23/M03 A3005 RMK A01 T02311026  RH  018%=      5-min Rain = 0
KBO1 131752Z 33010G15KT 23/M03 A3005 RMK A01 T02291026  RH  018%=      5-min Rain = 0
KBO1 131753Z 33008KT 23/M02 A3005 RMK A01 T02301015  RH  019%=      5-min Rain = 0
KBO1 131754Z 32010KT 23/M02 A3005 RMK A01 T02331022  RH  018%=      5-min Rain = 0
KBO1 131755Z 32008KT 23/M03 A3005 RMK A01 T02291026  RH  018%=      5-min Rain = 0
KBO1 131756Z 32011KT 23/M02 A3005 RMK A01 T02281018  RH  019%=      5-min Rain = 0
KBO1 131757Z 33011KT 23/M02 A3005 RMK A01 T02291023  RH  018%=      5-min Rain = 0
KBO1 131758Z 32013KT 23/M02 A3005 RMK A01 T02291021  RH  019%=      5-min Rain = 0
KBO1 131759Z 31013KT 23/M02 A3005 RMK A01 T02311019  RH  019%=      5-min Rain = 0
KBO1 131800Z 31011KT 23/M03 A3005 RMK A01 T02311027  RH  018%=      5-min Rain = 0
KBO1 131801Z 31009KT 23/M03 A3005 RMK A01 T02291026  RH  018%=      5-min Rain = 0
KBO1 131802Z 30011KT 23/M03 A3005 RMK A01 T02291025  RH  018%=      5-min Rain = 0
KBO1 131803Z 30010KT 23/M02 A3005 RMK A01 T02301019  RH  019%=      5-min Rain = 0
KBO1 131804Z 30010KT 23/M02 A3005 RMK A01 T02321023  RH  018%=      5-min Rain = 0
KBO1 131805Z 32008KT 23/M02 A3005 RMK A01 T02311023  RH  018%=      5-min Rain = 0
KBO1 131806Z 34007KT 23/M02 A3005 RMK A01 T02311019  RH  019%=      5-min Rain = 0
KBO1 131807Z 35011KT 23/M02 A3005 RMK A01 T02331017  RH  019%=      5-min Rain = 0
KBO1 131808Z 34010G20KT 23/M02 A3004 RMK A01 T02341018  RH  019%=      5-min Rain = 0
KBO1 131809Z 31013G21KT 23/M02 A3004 RMK A01 T02341019  RH  018%=      5-min Rain = 0
KBO1 131810Z 32012KT 24/M03 A3005 RMK A01 T02351033  RH  017%=      5-min Rain = 0
KBO1 131811Z 31011KT 23/M03 A3005 RMK A01 T02341034  RH  017%=      5-min Rain = 0
KBO1 131812Z 31008KT 23/M04 A3005 RMK A01 T02321037  RH  016%=      5-min Rain = 0
KBO1 131813Z 32009KT 23/M04 A3005 RMK A01 T02311037  RH  017%=      5-min Rain = 0
KBO1 131814Z 32006G13KT 23/M04 A3005 RMK A01 T02301037  RH  017%=      5-min Rain = 0
KBO1 131815Z 32012KT 23/M03 A3005 RMK A01 T02301029  RH  018%=      5-min Rain = 0
KBO1 131816Z 31011KT 23/M03 A3005 RMK A01 T02321033  RH  017%=      5-min Rain = 0
KBO1 131817Z 29007KT 23/M03 A3005 RMK A01 T02331033  RH  017%=      5-min Rain = 0
KBO1 131818Z 32005KT 23/M03 A3005 RMK A01 T02331032  RH  017%=      5-min Rain = 0
KBO1 131819Z 32009KT 23/M04 A3005 RMK A01 T02331035  RH  017%=      5-min Rain = 0
KBO1 131820Z 31011KT 23/M03 A3005 RMK A01 T02341029  RH  017%=      5-min Rain = 0
KBO1 131821Z 30010KT 24/M04 A3005 RMK A01 T02351035  RH  016%=      5-min Rain = 0
KBO1 131822Z 29008KT 23/M03 A3005 RMK A01 T02331034  RH  017%=      5-min Rain = 0
KBO1 131823Z 33011KT 23/M03 A3005 RMK A01 T02321025  RH  018%=      5-min Rain = 0
KBO1 131824Z 34009KT 23/M03 A3005 RMK A01 T02331025  RH  018%=      5-min Rain = 0
KBO1 131825Z 35009KT 23/M03 A3005 RMK A01 T02341027  RH  017%=      5-min Rain = 0
KBO1 131826Z 32009KT 23/M03 A3005 RMK A01 T02341028  RH  017%=      5-min Rain = 0
KBO1 131827Z 33010KT 24/M03 A3005 RMK A01 T02361033  RH  016%=      5-min Rain = 0
KBO1 131828Z 34011KT 24/M04 A3004 RMK A01 T02361036  RH  016%=      5-min Rain = 0
KBO1 131829Z 32012KT 24/M03 A3004 RMK A01 T02351034  RH  016%=      5-min Rain = 0
KBO1 131830Z 30013KT 24/M03 A3004 RMK A01 T02361029  RH  017%=      5-min Rain = 0
KBO1 131831Z 31011KT 24/M03 A3004 RMK A01 T02361029  RH  017%=      5-min Rain = 0
KBO1 131832Z 29007KT 24/M03 A3004 RMK A01 T02361028  RH  017%=      5-min Rain = 0
KBO1 131833Z 30006KT 24/M03 A3004 RMK A01 T02351031  RH  017%=      5-min Rain = 0
KBO1 131834Z 32008KT 24/M03 A3004 RMK A01 T02351026  RH  018%=      5-min Rain = 0
KBO1 131835Z 31011KT 24/M03 A3004 RMK A01 T02361032  RH  017%=      5-min Rain = 0
KBO1 131836Z 31013KT 24/M03 A3004 RMK A01 T02361031  RH  017%=      5-min Rain = 0
KBO1 131837Z 32011KT 24/M03 A3004 RMK A01 T02361034  RH  016%=      5-min Rain = 0
KBO1 131838Z 32011KT 24/M03 A3004 RMK A01 T02361032  RH  017%=      5-min Rain = 0
KBO1 131839Z 32009KT 24/M03 A3004 RMK A01 T02371034  RH  016%=      5-min Rain = 0
KBO1 131840Z 30009KT 24/M03 A3004 RMK A01 T02371030  RH  017%=      5-min Rain = 0
KBO1 131841Z 29008KT 24/M03 A3004 RMK A01 T02391031  RH  016%=      5-min Rain = 0
KBO1 131842Z 29007KT 24/M03 A3004 RMK A01 T02391025  RH  017%=      5-min Rain = 0
KBO1 131843Z 31011KT 24/M03 A3004 RMK A01 T02401027  RH  017%=      5-min Rain = 0
KBO1 131844Z 32012KT 24/M03 A3004 RMK A01 T02401034  RH  016%=      5-min Rain = 0
KBO1 131845Z 31009KT 24/M04 A3004 RMK A01 T02381038  RH  016%=      5-min Rain = 0
KBO1 131846Z 31008KT 24/M04 A3004 RMK A01 T02361037  RH  016%=      5-min Rain = 0
KBO1 131847Z 30010KT 24/M03 A3004 RMK A01 T02351034  RH  016%=      5-min Rain = 0
KBO1 131848Z 30007KT 24/M04 A3004 RMK A01 T02361041  RH  016%=      5-min Rain = 0
KBO1 131849Z 28008KT 24/M04 A3004 RMK A01 T02361038  RH  016%=      5-min Rain = 0
KBO1 131850Z 30010KT 24/M03 A3003 RMK A01 T02361034  RH  016%=      5-min Rain = 0
KBO1 131851Z 31009KT 24/M04 A3003 RMK A01 T02361039  RH  016%=      5-min Rain = 0
KBO1 131852Z 29010KT 24/M03 A3003 RMK A01 T02361032  RH  017%=      5-min Rain = 0
KBO1 131853Z 30006KT 24/M04 A3003 RMK A01 T02381037  RH  016%=      5-min Rain = 0
KBO1 131854Z 28007KT 24/M03 A3003 RMK A01 T02391033  RH  016%=      5-min Rain = 0
KBO1 131855Z 27008KT 24/M04 A3003 RMK A01 T02401036  RH  016%=      5-min Rain = 0
KBO1 131856Z 28009KT 24/M03 A3003 RMK A01 T02401032  RH  016%=      5-min Rain = 0
KBO1 131857Z 29011KT 24/M03 A3003 RMK A01 T02421028  RH  016%=      5-min Rain = 0
KBO1 131858Z 30012KT 24/M03 A3003 RMK A01 T02431034  RH  016%=      5-min Rain = 0
KBO1 131859Z 30011KT 24/M04 A3003 RMK A01 T02421037  RH  015%=      5-min Rain = 0
KBO1 131900Z 30011KT 24/M04 A3003 RMK A01 T02411035  RH  016%=      5-min Rain = 0
KBO1 131901Z 31009KT 24/M03 A3003 RMK A01 T02411033  RH  016%=      5-min Rain = 0
KBO1 131902Z 29010KT 24/M04 A3003 RMK A01 T02421035  RH  016%=      5-min Rain = 0
KBO1 131903Z 28006KT 24/M04 A3003 RMK A01 T02411037  RH  015%=      5-min Rain = 0
KBO1 131904Z 30005KT 24/M04 A3003 RMK A01 T02401040  RH  015%=      5-min Rain = 0
KBO1 131905Z 31007KT 24/M04 A3003 RMK A01 T02391039  RH  015%=      5-min Rain = 0
KBO1 131906Z 29008KT 24/M04 A3003 RMK A01 T02401036  RH  016%=      5-min Rain = 0
KBO1 131907Z 29012KT 24/M04 A3003 RMK A01 T02431037  RH  015%=      5-min Rain = 0
KBO1 131908Z 29010KT 24/M04 A3003 RMK A01 T02421040  RH  015%=      5-min Rain = 0
KBO1 131909Z 28011KT 24/M04 A3003 RMK A01 T02421039  RH  015%=      5-min Rain = 0
KBO1 131910Z 28010KT 24/M04 A3003 RMK A01 T02421040  RH  015%=      5-min Rain = 0
KBO1 131911Z 26010KT 24/M04 A3003 RMK A01 T02411044  RH  015%=      5-min Rain = 0
KBO1 131912Z 27007KT 24/M04 A3003 RMK A01 T02401039  RH  015%=      5-min Rain = 0
KBO1 131913Z 28006KT 24/M04 A3003 RMK A01 T02401041  RH  015%=      5-min Rain = 0
KBO1 131914Z 29004KT 24/M05 A3002 RMK A01 T02391045  RH  015%=      5-min Rain = 0
KBO1 131915Z 28005KT 24/M05 A3002 RMK A01 T02381047  RH  015%=      5-min Rain = 0
KBO1 131916Z 28007KT 24/M04 A3002 RMK A01 T02371040  RH  016%=      5-min Rain = 0
KBO1 131917Z 30007KT 24/M04 A3002 RMK A01 T02381035  RH  016%=      5-min Rain = 0
KBO1 131918Z 29009KT 24/M04 A3002 RMK A01 T02391041  RH  015%=      5-min Rain = 0
KBO1 131919Z 29008KT 24/M04 A3002 RMK A01 T02381041  RH  015%=      5-min Rain = 0
KBO1 131920Z 32008KT 24/M04 A3002 RMK A01 T02371036  RH  016%=      5-min Rain = 0
KBO1 131921Z 30006KT 24/M04 A3002 RMK A01 T02381037  RH  016%=      5-min Rain = 0
KBO1 131922Z 31007KT 24/M03 A3002 RMK A01 T02391034  RH  016%=      5-min Rain = 0
KBO1 131923Z 28008KT 24/M04 A3002 RMK A01 T02411038  RH  015%=      5-min Rain = 0
KBO1 131924Z 27007KT 24/M04 A3002 RMK A01 T02421042  RH  015%=      5-min Rain = 0
KBO1 131925Z 28006KT 24/M05 A3002 RMK A01 T02421048  RH  014%=      5-min Rain = 0
KBO1 131926Z 27005KT 24/M05 A3002 RMK A01 T02401047  RH  014%=      5-min Rain = 0
KBO1 131927Z 26008G13KT 24/M04 A3002 RMK A01 T02401041  RH  015%=      5-min Rain = 0
KBO1 131928Z 27011KT 24/M04 A3002 RMK A01 T02411043  RH  015%=      5-min Rain = 0
KBO1 131929Z 26009KT 24/M04 A3002 RMK A01 T02431041  RH  015%=      5-min Rain = 0
KBO1 131930Z 25011KT 25/M04 A3002 RMK A01 T02451043  RH  014%=      5-min Rain = 0
KBO1 131931Z 26008G13KT 25/M04 A3002 RMK A01 T02451044  RH  014%=      5-min Rain = 0
KBO1 131932Z 23010KT 24/M05 A3002 RMK A01 T02441046  RH  014%=      5-min Rain = 0
KBO1 131933Z 23008KT 24/M05 A3001 RMK A01 T02421049  RH  014%=      5-min Rain = 0
KBO1 131934Z 28008KT 24/M04 A3001 RMK A01 T02401044  RH  015%=      5-min Rain = 0
KBO1 131935Z 30011KT 24/M05 A3001 RMK A01 T02411045  RH  015%=      5-min Rain = 0
KBO1 131936Z 30009KT 24/M05 A3001 RMK A01 T02411049  RH  014%=      5-min Rain = 0
KBO1 131937Z 29008KT 24/M05 A3001 RMK A01 T02391047  RH  015%=      5-min Rain = 0
KBO1 131938Z 29009KT 24/M04 A3001 RMK A01 T02401040  RH  015%=      5-min Rain = 0
KBO1 131939Z 28008G13KT 24/M03 A3001 RMK A01 T02441031  RH  016%=      5-min Rain = 0
KBO1 131940Z 28009KT 25/M04 A3001 RMK A01 T02471043  RH  014%=      5-min Rain = 0
KBO1 131941Z 28009KT 25/M04 A3001 RMK A01 T02451043  RH  014%=      5-min Rain = 0
KBO1 131942Z 28007KT 24/M05 A3001 RMK A01 T02431048  RH  014%=      5-min Rain = 0
KBO1 131943Z 33005KT 24/M04 A3001 RMK A01 T02431043  RH  015%=      5-min Rain = 0
KBO1 131944Z 32004KT 24/M05 A3001 RMK A01 T02431048  RH  014%=      5-min Rain = 0
KBO1 131945Z 32009KT 24/M05 A3001 RMK A01 T02431045  RH  014%=      5-min Rain = 0
KBO1 131946Z 30009KT 24/M05 A3001 RMK A01 T02421049  RH  014%=      5-min Rain = 0
KBO1 131947Z 26009KT 24/M04 A3001 RMK A01 T02421042  RH  015%=      5-min Rain = 0
KBO1 131948Z 27011KT 24/M05 A3001 RMK A01 T02431045  RH  014%=      5-min Rain = 0
KBO1 131949Z 26009KT 24/M05 A3001 RMK A01 T02431048  RH  014%=      5-min Rain = 0
KBO1 131950Z 24007KT 24/M05 A3001 RMK A01 T02431045  RH  014%=      5-min Rain = 0
KBO1 131951Z 24010KT 24/M04 A3001 RMK A01 T02431044  RH  015%=      5-min Rain = 0
KBO1 131952Z 25008KT 24/M05 A3001 RMK A01 T02431045  RH  014%=      5-min Rain = 0
KBO1 131953Z 25005KT 24/M05 A3001 RMK A01 T02421045  RH  015%=      5-min Rain = 0
KBO1 131954Z 29007KT 24/M04 A3001 RMK A01 T02421039  RH  015%=      5-min Rain = 0
KBO1 131955Z 31007KT 24/M04 A3001 RMK A01 T02431042  RH  015%=      5-min Rain = 0
KBO1 131956Z 30007KT 24/M04 A3001 RMK A01 T02441039  RH  015%=      5-min Rain = 0
KBO1 131957Z 29008KT 24/M04 A3001 RMK A01 T02441043  RH  015%=      5-min Rain = 0
KBO1 131958Z 26010KT 24/M04 A30 RMK A01 T02431038  RH  015%=      5-min Rain = 0
KBO1 131959Z 25006KT 24/M03 A30 RMK A01 T02441034  RH  016%=      5-min Rain = 0
KBO1 132000Z 30009KT 25/M03 A30 RMK A01 T02461032  RH  016%=      5-min Rain = 0
KBO1 132001Z 30009KT 25/M04 A30 RMK A01 T02471037  RH  015%=      5-min Rain = 0
KBO1 132002Z 28011KT 25/M03 A30 RMK A01 T02481033  RH  015%=      5-min Rain = 0
KBO1 132003Z 28011KT 25/M04 A30 RMK A01 T02481040  RH  015%=      5-min Rain = 0
KBO1 132004Z 30008KT 25/M04 A30 RMK A01 T02471043  RH  014%=      5-min Rain = 0
KBO1 132005Z 30006KT 25/M04 A30 RMK A01 T02451042  RH  015%=      5-min Rain = 0
KBO1 132006Z 28005KT 25/M04 A30 RMK A01 T02461035  RH  015%=      5-min Rain = 0
KBO1 132007Z 29007KT 25/M04 A30 RMK A01 T02481037  RH  015%=      5-min Rain = 0
KBO1 132008Z 28010KT 25/M03 A30 RMK A01 T02491033  RH  015%=      5-min Rain = 0
KBO1 132009Z 27008KT 25/M04 A30 RMK A01 T02511036  RH  015%=      5-min Rain = 0
KBO1 132010Z 31006KT 25/M04 A30 RMK A01 T02481041  RH  014%=      5-min Rain = 0
KBO1 132011Z 30007KT 25/M03 A30 RMK A01 T02461034  RH  015%=      5-min Rain = 0
KBO1 132012Z 30008KT 25/M04 A30 RMK A01 T02461036  RH  015%=      5-min Rain = 0
KBO1 132013Z 30008KT 25/M04 A30 RMK A01 T02471043  RH  014%=      5-min Rain = 0
KBO1 132014Z 30008KT 25/M05 A30 RMK A01 T02461045  RH  014%=      5-min Rain = 0
KBO1 132015Z 31007KT 25/M05 A30 RMK A01 T02461046  RH  014%=      5-min Rain = 0
KBO1 132016Z 32007KT 25/M04 A30 RMK A01 T02461038  RH  015%=      5-min Rain = 0
KBO1 132017Z 30008KT 25/M03 A30 RMK A01 T02501031  RH  015%=      5-min Rain = 0
KBO1 132018Z 28012KT 25/M04 A30 RMK A01 T02521039  RH  014%=      5-min Rain = 0
KBO1 132019Z 26013KT 25/M04 A30 RMK A01 T02521042  RH  014%=      5-min Rain = 0
KBO1 132020Z 26012KT 25/M04 A30 RMK A01 T02501044  RH  014%=      5-min Rain = 0
KBO1 132021Z 26008KT 25/M05 A30 RMK A01 T02491046  RH  014%=      5-min Rain = 0
KBO1 132022Z 26005KT 25/M05 A30 RMK A01 T02481048  RH  014%=      5-min Rain = 0
KBO1 132023Z 24008KT 25/M04 A30 RMK A01 T02491039  RH  015%=      5-min Rain = 0
KBO1 132024Z 26012KT 25/M04 A2999 RMK A01 T02511038  RH  014%=      5-min Rain = 0
KBO1 132025Z 25007KT 25/M05 A30 RMK A01 T02511045  RH  014%=      5-min Rain = 0
KBO1 132026Z 24009KT 25/M04 A30 RMK A01 T02501040  RH  014%=      5-min Rain = 0
KBO1 132027Z 25009KT 25/M04 A30 RMK A01 T02501037  RH  015%=      5-min Rain = 0
KBO1 132028Z 25007KT 25/M05 A30 RMK A01 T02501045  RH  014%=      5-min Rain = 0
KBO1 132029Z 25007KT 25/M03 A30 RMK A01 T02491032  RH  015%=      5-min Rain = 0
KBO1 132030Z 25006KT 25/M04 A30 RMK A01 T02511040  RH  014%=      5-min Rain = 0
KBO1 132031Z 25008KT 25/M04 A30 RMK A01 T02511042  RH  014%=      5-min Rain = 0
KBO1 132032Z 25007KT 25/M03 A30 RMK A01 T02501034  RH  015%=      5-min Rain = 0
KBO1 132033Z 24007KT 25/M04 A30 RMK A01 T02501038  RH  015%=      5-min Rain = 0
KBO1 132034Z 24006KT 25/M04 A30 RMK A01 T02511040  RH  014%=      5-min Rain = 0
KBO1 132035Z 24005KT 25/M04 A30 RMK A01 T02501037  RH  015%=      5-min Rain = 0
KBO1 132036Z 24005KT 25/M04 A30 RMK A01 T02501039  RH  015%=      5-min Rain = 0
KBO1 132037Z 22003KT 25/M05 A2999 RMK A01 T02501045  RH  014%=      5-min Rain = 0
KBO1 132038Z 29007KT 25/M03 A2999 RMK A01 T02501034  RH  015%=      5-min Rain = 0
KBO1 132039Z 31007KT 25/M04 A2999 RMK A01 T02531037  RH  014%=      5-min Rain = 0
KBO1 132040Z 28009KT 25/M04 A2999 RMK A01 T02541039  RH  014%=      5-min Rain = 0
KBO1 132041Z 28006KT 25/M04 A2999 RMK A01 T02531043  RH  014%=      5-min Rain = 0
KBO1 132042Z 30007KT 25/M04 A2999 RMK A01 T02521042  RH  014%=      5-min Rain = 0
KBO1 132043Z 27007KT 25/M04 A2999 RMK A01 T02511040  RH  014%=      5-min Rain = 0
KBO1 132044Z 26010KT 25/M05 A2999 RMK A01 T02531045  RH  014%=      5-min Rain = 0
KBO1 132045Z 26012KT 26/M06 A2999 RMK A01 T02561056  RH  012%=      5-min Rain = 0
KBO1 132046Z 26011KT 26/M06 A2999 RMK A01 T02551059  RH  012%=      5-min Rain = 0
KBO1 132047Z 26013KT 25/M06 A2999 RMK A01 T02531056  RH  013%=      5-min Rain = 0
KBO1 132048Z 25010KT 25/M05 A2999 RMK A01 T02521054  RH  013%=      5-min Rain = 0
KBO1 132049Z 25008KT 25/M05 A2999 RMK A01 T02511054  RH  013%=      5-min Rain = 0
KBO1 132050Z 25007KT 25/M06 A2999 RMK A01 T02491060  RH  012%=      5-min Rain = 0
KBO1 132051Z 25007KT 25/M06 A2999 RMK A01 T02491061  RH  012%=      5-min Rain = 0
KBO1 132052Z 25004KT 25/M06 A2999 RMK A01 T02491062  RH  012%=      5-min Rain = 0
KBO1 132053Z 24003KT 25/M06 A2999 RMK A01 T02501063  RH  012%=      5-min Rain = 0
KBO1 132054Z 23003KT 25/M06 A2999 RMK A01 T02511061  RH  012%=      5-min Rain = 0
KBO1 132055Z 27002KT 25/M06 A2999 RMK A01 T02511057  RH  013%=      5-min Rain = 0
KBO1 132056Z 26004KT 25/M06 A2999 RMK A01 T02531056  RH  013%=      5-min Rain = 0
KBO1 132057Z 26009KT 25/M05 A2999 RMK A01 T02541051  RH  013%=      5-min Rain = 0
KBO1 132058Z 25011KT 26/M05 A2999 RMK A01 T02561051  RH  013%=      5-min Rain = 0
KBO1 132059Z 24006KT 26/M06 A2999 RMK A01 T02551058  RH  012%=      5-min Rain = 0
KBO1 132100Z 23004KT 25/M06 A2999 RMK A01 T02531056  RH  013%=      5-min Rain = 0
KBO1 132101Z 22004KT 25/M06 A2999 RMK A01 T02531055  RH  013%=      5-min Rain = 0
KBO1 132102Z 23010KT 25/M05 A2999 RMK A01 T02541047  RH  013%=      5-min Rain = 0
KBO1 132103Z 22010KT 26/M05 A2999 RMK A01 T02551049  RH  013%=      5-min Rain = 0
KBO1 132104Z 22008KT 26/M05 A2999 RMK A01 T02551052  RH  013%=      5-min Rain = 0
KBO1 132105Z 22009KT 26/M05 A2999 RMK A01 T02551052  RH  013%=      5-min Rain = 0
KBO1 132106Z 21006KT 25/M06 A2999 RMK A01 T02541056  RH  012%=      5-min Rain = 0
KBO1 132107Z 23005KT 25/M05 A2999 RMK A01 T02531054  RH  013%=      5-min Rain = 0
KBO1 132108Z 24005KT 25/M05 A2999 RMK A01 T02531053  RH  013%=      5-min Rain = 0
KBO1 132109Z 23004KT 25/M05 A2999 RMK A01 T02531054  RH  013%=      5-min Rain = 0
KBO1 132110Z 25005KT 25/M05 A2999 RMK A01 T02531051  RH  013%=      5-min Rain = 0
KBO1 132111Z 24007KT 25/M04 A2999 RMK A01 T02541044  RH  014%=      5-min Rain = 0
KBO1 132112Z 23007KT 26/M05 A2999 RMK A01 T02551053  RH  013%=      5-min Rain = 0
KBO1 132113Z 23007KT 25/M05 A2999 RMK A01 T02541052  RH  013%=      5-min Rain = 0
KBO1 132114Z 22007KT 25/M05 A2999 RMK A01 T02541054  RH  013%=      5-min Rain = 0
KBO1 132115Z 20007KT 25/M06 A2999 RMK A01 T02541056  RH  012%=      5-min Rain = 0
KBO1 132116Z 20005KT 25/M05 A2999 RMK A01 T02531053  RH  013%=      5-min Rain = 0
KBO1 132117Z 22005KT 25/M06 A2999 RMK A01 T02541055  RH  013%=      5-min Rain = 0
KBO1 132118Z 27007KT 25/M05 A2999 RMK A01 T02541049  RH  013%=      5-min Rain = 0
KBO1 132119Z 27008KT 26/M06 A2999 RMK A01 T02551060  RH  012%=      5-min Rain = 0
KBO1 132120Z 27008KT 26/M05 A2999 RMK A01 T02561054  RH  013%=      5-min Rain = 0
KBO1 132121Z 26007KT 26/M05 A2999 RMK A01 T02571051  RH  013%=      5-min Rain = 0
KBO1 132122Z 26007KT 26/M05 A2999 RMK A01 T02591046  RH  013%=      5-min Rain = 0
KBO1 132123Z 27009KT 26/M05 A2999 RMK A01 T02601053  RH  012%=      5-min Rain = 0
KBO1 132124Z 27009KT 26/M06 A2999 RMK A01 T02591055  RH  012%=      5-min Rain = 0
KBO1 132125Z 29011KT 26/M05 A2999 RMK A01 T02591054  RH  012%=      5-min Rain = 0
KBO1 132126Z 28009KT 26/M06 A2999 RMK A01 T02591057  RH  012%=      5-min Rain = 0
KBO1 132127Z 27008KT 26/M06 A2999 RMK A01 T02581060  RH  012%=      5-min Rain = 0
KBO1 132128Z 27009KT 26/M06 A2999 RMK A01 T02571062  RH  012%=      5-min Rain = 0
KBO1 132129Z 29007KT 26/M06 A2999 RMK A01 T02561064  RH  012%=      5-min Rain = 0
KBO1 132130Z 28006KT 26/M06 A2999 RMK A01 T02551059  RH  012%=      5-min Rain = 0
KBO1 132131Z 28006KT 26/M06 A2999 RMK A01 T02561057  RH  012%=      5-min Rain = 0
KBO1 132132Z 25008KT 26/M05 A2999 RMK A01 T02581053  RH  012%=      5-min Rain = 0
KBO1 132133Z 24008KT 26/M05 A2999 RMK A01 T02591052  RH  012%=      5-min Rain = 0
KBO1 132134Z 25008KT 26/M06 A2999 RMK A01 T02581057  RH  012%=      5-min Rain = 0
KBO1 132135Z 25009KT 26/M05 A2999 RMK A01 T02571052  RH  013%=      5-min Rain = 0
KBO1 132136Z 28006KT 26/M06 A2999 RMK A01 T02571059  RH  012%=      5-min Rain = 0
KBO1 132137Z 27005KT 26/M06 A2999 RMK A01 T02561056  RH  012%=      5-min Rain = 0
KBO1 132138Z 28006KT 26/M06 A2999 RMK A01 T02561062  RH  012%=      5-min Rain = 0
KBO1 132139Z 29010KT 26/M06 A2999 RMK A01 T02561060  RH  012%=      5-min Rain = 0
KBO1 132140Z 27008KT 26/M06 A2999 RMK A01 T02571063  RH  012%=      5-min Rain = 0
KBO1 132141Z 29008KT 26/M07 A2999 RMK A01 T02571067  RH  011%=      5-min Rain = 0
KBO1 132142Z 29007KT 26/M06 A2999 RMK A01 T02571055  RH  012%=      5-min Rain = 0
KBO1 132143Z 29007KT 26/M06 A2999 RMK A01 T02571063  RH  012%=      5-min Rain = 0
KBO1 132144Z 26005KT 26/M06 A2999 RMK A01 T02571055  RH  012%=      5-min Rain = 0
KBO1 132145Z 26007KT 26/M05 A2999 RMK A01 T02581049  RH  013%=      5-min Rain = 0
KBO1 132146Z 25007KT 26/M05 A2999 RMK A01 T02591052  RH  012%=      5-min Rain = 0
KBO1 132147Z 26007KT 26/M06 A2999 RMK A01 T02591057  RH  012%=      5-min Rain = 0
KBO1 132148Z 25008KT 26/M06 A2999 RMK A01 T02571056  RH  012%=      5-min Rain = 0
KBO1 132149Z 24010KT 26/M06 A2999 RMK A01 T02571056  RH  012%=      5-min Rain = 0
KBO1 132150Z 22010KT 26/M06 A2999 RMK A01 T02581061  RH  012%=      5-min Rain = 0
KBO1 132151Z 21008KT 26/M06 A2999 RMK A01 T02581061  RH  012%=      5-min Rain = 0
KBO1 132152Z 21009KT 26/M07 A2999 RMK A01 T02581066  RH  011%=      5-min Rain = 0
KBO1 132153Z 22008KT 26/M07 A2999 RMK A01 T02581070  RH  011%=      5-min Rain = 0
KBO1 132154Z 22006KT 26/M06 A2999 RMK A01 T02581061  RH  012%=      5-min Rain = 0
KBO1 132155Z 23006KT 26/M05 A2999 RMK A01 T02581052  RH  013%=      5-min Rain = 0
KBO1 132156Z 24007KT 26/M06 A2999 RMK A01 T02591058  RH  012%=      5-min Rain = 0
KBO1 132157Z 26007KT 26/M05 A2999 RMK A01 T02591051  RH  013%=      5-min Rain = 0
KBO1 132158Z 25009KT 26/M05 A2999 RMK A01 T02591052  RH  012%=      5-min Rain = 0
KBO1 132159Z 26008KT 26/M05 A2999 RMK A01 T02591054  RH  012%=      5-min Rain = 0
KBO1 132200Z 28010KT 26/M06 A2999 RMK A01 T02581055  RH  012%=      5-min Rain = 0
KBO1 132201Z 28008KT 26/M06 A2999 RMK A01 T02581056  RH  012%=      5-min Rain = 0
KBO1 132202Z 28008KT 26/M06 A2999 RMK A01 T02601057  RH  012%=      5-min Rain = 0
KBO1 132203Z 28007KT 26/M06 A2999 RMK A01 T02591059  RH  012%=      5-min Rain = 0
KBO1 132204Z 27006KT 26/M06 A2999 RMK A01 T02581061  RH  012%=      5-min Rain = 0
KBO1 132205Z 26005KT 26/M06 A2999 RMK A01 T02581059  RH  012%=      5-min Rain = 0
KBO1 132206Z 28006KT 26/M06 A2999 RMK A01 T02581058  RH  012%=      5-min Rain = 0
KBO1 132207Z 28008KT 26/M06 A2999 RMK A01 T02571061  RH  012%=      5-min Rain = 0
KBO1 132208Z 28007KT 26/M06 A2999 RMK A01 T02571064  RH  011%=      5-min Rain = 0
KBO1 132209Z 26005KT 26/M06 A2999 RMK A01 T02561064  RH  012%=      5-min Rain = 0
KBO1 132210Z 24003KT 26/M07 A2999 RMK A01 T02561065  RH  011%=      5-min Rain = 0
KBO1 132211Z 28005KT 26/M06 A2999 RMK A01 T02561064  RH  012%=      5-min Rain = 0
KBO1 132212Z 26009KT 26/M05 A2999 RMK A01 T02571054  RH  012%=      5-min Rain = 0
KBO1 132213Z 25006KT 26/M05 A2999 RMK A01 T02581054  RH  012%=      5-min Rain = 0
KBO1 132214Z 25006KT 26/M05 A2999 RMK A01 T02581047  RH  013%=      5-min Rain = 0
KBO1 132215Z 25005KT 26/M06 A2999 RMK A01 T02581055  RH  012%=      5-min Rain = 0
KBO1 132216Z 24004KT 26/M06 A2999 RMK A01 T02581055  RH  012%=      5-min Rain = 0
KBO1 132217Z 18001KT 26/M06 A2999 RMK A01 T02581057  RH  012%=      5-min Rain = 0
KBO1 132218Z 23006KT 26/M06 A2999 RMK A01 T02601059  RH  012%=      5-min Rain = 0
KBO1 132219Z 23005G10KT 26/M06 A2999 RMK A01 T02601058  RH  012%=      5-min Rain = 0
KBO1 132220Z 26010KT 26/M06 A2999 RMK A01 T02591062  RH  012%=      5-min Rain = 0
KBO1 132221Z 27010KT 26/M06 A2999 RMK A01 T02581064  RH  011%=      5-min Rain = 0
KBO1 132222Z 26008KT 26/M07 A2999 RMK A01 T02581071  RH  011%=      5-min Rain = 0
KBO1 132223Z 26007KT 26/M07 A2999 RMK A01 T02571066  RH  011%=      5-min Rain = 0
KBO1 132224Z 27010KT 26/M06 A2999 RMK A01 T02571064  RH  012%=      5-min Rain = 0
KBO1 132225Z 25010KT 26/M06 A2999 RMK A01 T02571063  RH  012%=      5-min Rain = 0
KBO1 132226Z 25011KT 26/M06 A2999 RMK A01 T02581062  RH  012%=      5-min Rain = 0
KBO1 132227Z 26010KT 26/M06 A2999 RMK A01 T02571059  RH  012%=      5-min Rain = 0
KBO1 132228Z 26009KT 26/M07 A2999 RMK A01 T02561067  RH  011%=      5-min Rain = 0
KBO1 132229Z 25008KT 26/M07 A2999 RMK A01 T02551065  RH  011%=      5-min Rain = 0
KBO1 132230Z 25006KT 26/M05 A2999 RMK A01 T02551052  RH  013%=      5-min Rain = 0
KBO1 132231Z 26007KT 26/M05 A2999 RMK A01 T02561049  RH  013%=      5-min Rain = 0
KBO1 132232Z 27007KT 26/M06 A2999 RMK A01 T02571061  RH  012%=      5-min Rain = 0
KBO1 132233Z 26007KT 26/M06 A2999 RMK A01 T02571057  RH  012%=      5-min Rain = 0
KBO1 132234Z 24007KT 26/M05 A2999 RMK A01 T02571052  RH  013%=      5-min Rain = 0
KBO1 132235Z 24008KT 26/M06 A2999 RMK A01 T02581061  RH  012%=      5-min Rain = 0
KBO1 132236Z 25010KT 26/M06 A2999 RMK A01 T02571064  RH  012%=      5-min Rain = 0
KBO1 132237Z 27007KT 26/M07 A2999 RMK A01 T02561070  RH  011%=      5-min Rain = 0
KBO1 132238Z 27008KT 26/M07 A2999 RMK A01 T02551069  RH  011%=      5-min Rain = 0
KBO1 132239Z 26006KT 26/M06 A2999 RMK A01 T02551058  RH  012%=      5-min Rain = 0
KBO1 132240Z 26005KT 26/M06 A2999 RMK A01 T02561064  RH  012%=      5-min Rain = 0
KBO1 132241Z 26008KT 26/M06 A2999 RMK A01 T02571064  RH  012%=      5-min Rain = 0
KBO1 132242Z 26007KT 26/M07 A2999 RMK A01 T02561068  RH  011%=      5-min Rain = 0
KBO1 132243Z 26005KT 26/M07 A2999 RMK A01 T02561071  RH  011%=      5-min Rain = 0
KBO1 132244Z 26006KT 26/M07 A2999 RMK A01 T02551069  RH  011%=      5-min Rain = 0
KBO1 132245Z 26005KT 26/M07 A2999 RMK A01 T02561066  RH  011%=      5-min Rain = 0
KBO1 132246Z 26005KT 26/M06 A2999 RMK A01 T02551062  RH  012%=      5-min Rain = 0
KBO1 132247Z 28005KT 26/M06 A2999 RMK A01 T02561056  RH  012%=      5-min Rain = 0
KBO1 132248Z 28006KT 26/M06 A2999 RMK A01 T02561059  RH  012%=      5-min Rain = 0
KBO1 132249Z 27006KT 26/M06 A2999 RMK A01 T02571064  RH  012%=      5-min Rain = 0
KBO1 132250Z 26006KT 26/M07 A2999 RMK A01 T02571065  RH  011%=      5-min Rain = 0
KBO1 132251Z 28006KT 26/M07 A2999 RMK A01 T02561068  RH  011%=      5-min Rain = 0
KBO1 132252Z 26007KT 26/M07 A2999 RMK A01 T02561066  RH  011%=      5-min Rain = 0
KBO1 132253Z 25007KT 26/M06 A2999 RMK A01 T02561059  RH  012%=      5-min Rain = 0
KBO1 132254Z 25006KT 26/M06 A2999 RMK A01 T02551064  RH  012%=      5-min Rain = 0
KBO1 132255Z 26005KT 25/M06 A2999 RMK A01 T02541060  RH  012%=      5-min Rain = 0
KBO1 132256Z 27007KT 25/M06 A2999 RMK A01 T02541060  RH  012%=      5-min Rain = 0
KBO1 132257Z 27008KT 25/M06 A2999 RMK A01 T02541064  RH  012%=      5-min Rain = 0
KBO1 132258Z 27006KT 25/M06 A2999 RMK A01 T02541062  RH  012%=      5-min Rain = 0
KBO1 132259Z 27007KT 25/M06 A2999 RMK A01 T02541060  RH  012%=      5-min Rain = 0
KBO1 132300Z 27006KT 25/M06 A2999 RMK A01 T02541061  RH  012%=      5-min Rain = 0
KBO1 132301Z 28006KT 26/M06 A2999 RMK A01 T02551060  RH  012%=      5-min Rain = 0
KBO1 132302Z 28006KT 25/M06 A2999 RMK A01 T02541056  RH  012%=      5-min Rain = 0
KBO1 132303Z 28006KT 25/M06 A2999 RMK A01 T02541059  RH  012%=      5-min Rain = 0
KBO1 132304Z 27004KT 26/M06 A2999 RMK A01 T02551061  RH  012%=      5-min Rain = 0
KBO1 132305Z 27004KT 25/M06 A2999 RMK A01 T02541060  RH  012%=      5-min Rain = 0
KBO1 132306Z 28006KT 25/M06 A2999 RMK A01 T02541059  RH  012%=      5-min Rain = 0
KBO1 132307Z 29005KT 25/M06 A2999 RMK A01 T02541062  RH  012%=      5-min Rain = 0
KBO1 132308Z 30007KT 25/M06 A2999 RMK A01 T02541056  RH  012%=      5-min Rain = 0
KBO1 132309Z 28005KT 26/M05 A2999 RMK A01 T02551049  RH  013%=      5-min Rain = 0
KBO1 132310Z 26005KT 25/M05 A2999 RMK A01 T02541050  RH  013%=      5-min Rain = 0
KBO1 132311Z 26004KT 25/M06 A2999 RMK A01 T02541059  RH  012%=      5-min Rain = 0
KBO1 132312Z 27005KT 25/M05 A2999 RMK A01 T02541053  RH  013%=      5-min Rain = 0
KBO1 132313Z 28005KT 25/M05 A2999 RMK A01 T02531054  RH  013%=      5-min Rain = 0
KBO1 132314Z 29004KT 25/M05 A2999 RMK A01 T02531052  RH  013%=      5-min Rain = 0
KBO1 132315Z 28004KT 25/M06 A2999 RMK A01 T02531055  RH  013%=      5-min Rain = 0
KBO1 132316Z 28004KT 25/M04 A2999 RMK A01 T02521040  RH  014%=      5-min Rain = 0
KBO1 132317Z 27004KT 25/M05 A2999 RMK A01 T02531049  RH  013%=      5-min Rain = 0
KBO1 132318Z 29004KT 25/M05 A2999 RMK A01 T02521049  RH  013%=      5-min Rain = 0
KBO1 132319Z 30005KT 25/M05 A2999 RMK A01 T02521047  RH  013%=      5-min Rain = 0
KBO1 132320Z 29005KT 25/M05 A2999 RMK A01 T02511051  RH  013%=      5-min Rain = 0
KBO1 132321Z 29005KT 25/M05 A2999 RMK A01 T02511053  RH  013%=      5-min Rain = 0
KBO1 132322Z 30005KT 25/M05 A2999 RMK A01 T02501053  RH  013%=      5-min Rain = 0
KBO1 132323Z 28004KT 25/M06 A2999 RMK A01 T02501055  RH  013%=      5-min Rain = 0
KBO1 132324Z 29003KT 25/M05 A2999 RMK A01 T02501052  RH  013%=      5-min Rain = 0
KBO1 132325Z 30002KT 25/M05 A2999 RMK A01 T02501046  RH  014%=      5-min Rain = 0
KBO1 132326Z 32002KT 25/M04 A2999 RMK A01 T02511042  RH  014%=      5-min Rain = 0
KBO1 132327Z 32003KT 25/M04 A2999 RMK A01 T02501036  RH  015%=      5-min Rain = 0
KBO1 132328Z 31003KT 25/M03 A2999 RMK A01 T02511032  RH  015%=      5-min Rain = 0
KBO1 132329Z 31003KT 25/M04 A2999 RMK A01 T02511044  RH  014%=      5-min Rain = 0
KBO1 132330Z 31002KT 25/M05 A2999 RMK A01 T02511051  RH  013%=      5-min Rain = 0
KBO1 132331Z 31002KT 25/M05 A2999 RMK A01 T02511052  RH  013%=      5-min Rain = 0
KBO1 132332Z 29001KT 25/M04 A2999 RMK A01 T02511043  RH  014%=      5-min Rain = 0
KBO1 132333Z 28001KT 25/M04 A2999 RMK A01 T02511036  RH  015%=      5-min Rain = 0
KBO1 132334Z 28001KT 25/M04 A2999 RMK A01 T02511039  RH  014%=      5-min Rain = 0
KBO1 132335Z 29001KT 25/M05 A2999 RMK A01 T02511045  RH  014%=      5-min Rain = 0
KBO1 132336Z 30001KT 25/M05 A2999 RMK A01 T02521047  RH  013%=      5-min Rain = 0
KBO1 132337Z 31001KT 25/M04 A2999 RMK A01 T02521044  RH  014%=      5-min Rain = 0
KBO1 132338Z 31001KT 25/M05 A2999 RMK A01 T02521047  RH  013%=      5-min Rain = 0
KBO1 132339Z 31000KT 25/M04 A2999 RMK A01 T02531038  RH  014%=      5-min Rain = 0
KBO1 132340Z 00000KT 26/M03 A2999 RMK A01 T02561025  RH  016%=      5-min Rain = 0
KBO1 132341Z 00000KT 26/M03 A30 RMK A01 T02571027  RH  015%=      5-min Rain = 0
KBO1 132342Z 24000KT 26/M03 A30 RMK A01 T02581032  RH  015%=      5-min Rain = 0
KBO1 132343Z 24000KT 26/M05 A30 RMK A01 T02581053  RH  012%=      5-min Rain = 0
KBO1 132344Z 00000KT 26/M05 A30 RMK A01 T02571045  RH  013%=      5-min Rain = 0
KBO1 132345Z 00000KT 26/M04 A30 RMK A01 T02571039  RH  014%=      5-min Rain = 0
KBO1 132346Z 00000KT 26/M04 A30 RMK A01 T02561043  RH  014%=      5-min Rain = 0
KBO1 132347Z 00000KT 25/M04 A30 RMK A01 T02531041  RH  014%=      5-min Rain = 0
KBO1 132348Z 00000KT 25/M03 A30 RMK A01 T02521033  RH  015%=      5-min Rain = 0
KBO1 132349Z 00000KT 25/M04 A30 RMK A01 T02501040  RH  014%=      5-min Rain = 0
KBO1 132350Z 00000KT 25/M05 A30 RMK A01 T02481047  RH  014%=      5-min Rain = 0
KBO1 132351Z 00000KT 25/M04 A30 RMK A01 T02471036  RH  015%=      5-min Rain = 0
KBO1 132352Z 00000KT 25/M04 A30 RMK A01 T02451044  RH  014%=      5-min Rain = 0
KBO1 132353Z 00000KT 24/M04 A30 RMK A01 T02441044  RH  014%=      5-min Rain = 0
KBO1 132354Z 00000KT 24/M04 A30 RMK A01 T02441039  RH  015%=      5-min Rain = 0
KBO1 132355Z 02000KT 24/M03 A30 RMK A01 T02421025  RH  017%=      5-min Rain = 0
KBO1 132356Z 02001KT 24/M04 A30 RMK A01 T02411037  RH  016%=      5-min Rain = 0
KBO1 132357Z 02000KT 24/M04 A30 RMK A01 T02391039  RH  015%=      5-min Rain = 0
KBO1 132358Z 02000KT 24/M04 A30 RMK A01 T02371036  RH  016%=      5-min Rain = 0
KBO1 132359Z 02000KT 24/M04 A30 RMK A01 T02361044  RH  015%=      5-min Rain = 0
KBO1 140000Z 04000KT 24/M05 A30 RMK A01 T02361053  RH  014%=      5-min Rain = 0
KBO1 140001Z 04001KT 24/M05 A30 RMK A01 T02351046  RH  015%=      5-min Rain = 0
KBO1 140002Z 04000KT 23/M05 A30 RMK A01 T02341048  RH  015%=      5-min Rain = 0
KBO1 140003Z 03001KT 23/M05 A30 RMK A01 T02341049  RH  015%=      5-min Rain = 0
KBO1 140004Z 02001KT 23/M05 A30 RMK A01 T02331052  RH  015%=      5-min Rain = 0
KBO1 140005Z 02001KT 23/M05 A30 RMK A01 T02321054  RH  014%=      5-min Rain = 0
KBO1 140006Z 02001KT 23/M05 A30 RMK A01 T02311046  RH  015%=      5-min Rain = 0
KBO1 140007Z 03001KT 23/M04 A30 RMK A01 T02301040  RH  016%=      5-min Rain = 0
KBO1 140008Z 04001KT 23/M04 A30 RMK A01 T02271037  RH  017%=      5-min Rain = 0
KBO1 140009Z 04001KT 23/M04 A30 RMK A01 T02261040  RH  017%=      5-min Rain = 0
KBO1 140010Z 05001KT 23/M04 A30 RMK A01 T02251040  RH  017%=      5-min Rain = 0
KBO1 140011Z 05001KT 22/M04 A30 RMK A01 T02241040  RH  017%=      5-min Rain = 0
KBO1 140012Z 05001KT 22/M04 A30 RMK A01 T02231042  RH  017%=      5-min Rain = 0
KBO1 140013Z 06001KT 22/M04 A30 RMK A01 T02231044  RH  016%=      5-min Rain = 0
KBO1 140014Z 06001KT 22/M05 A30 RMK A01 T02231047  RH  016%=      5-min Rain = 0
KBO1 140015Z 06001KT 22/M05 A30 RMK A01 T02221051  RH  016%=      5-min Rain = 0
KBO1 140016Z 06002KT 22/M06 A30 RMK A01 T02221058  RH  015%=      5-min Rain = 0
KBO1 140017Z 06002KT 22/M06 A30 RMK A01 T02221056  RH  015%=      5-min Rain = 0
KBO1 140018Z 07002KT 22/M06 A30 RMK A01 T02221058  RH  015%=      5-min Rain = 0
KBO1 140019Z 08002KT 22/M06 A30 RMK A01 T02221060  RH  015%=      5-min Rain = 0
KBO1 140020Z 09002KT 22/M06 A30 RMK A01 T02231061  RH  014%=      5-min Rain = 0
KBO1 140021Z 10002KT 22/M06 A30 RMK A01 T02231062  RH  014%=      5-min Rain = 0
KBO1 140022Z 11002KT 22/M06 A30 RMK A01 T02231060  RH  015%=      5-min Rain = 0
KBO1 140023Z 12002KT 22/M04 A30 RMK A01 T02211043  RH  017%=      5-min Rain = 0
KBO1 140024Z 12003KT 22/M04 A30 RMK A01 T02151038  RH  018%=      5-min Rain = 0
KBO1 140025Z 12004KT 21/M05 A30 RMK A01 T02111047  RH  017%=      5-min Rain = 0
KBO1 140026Z 11003KT 21/M05 A30 RMK A01 T02101048  RH  017%=      5-min Rain = 0
KBO1 140027Z 10003KT 21/M05 A30 RMK A01 T02111053  RH  017%=      5-min Rain = 0
KBO1 140028Z 10003KT 21/M06 A30 RMK A01 T02131059  RH  016%=      5-min Rain = 0
KBO1 140029Z 10003KT 22/M06 A30 RMK A01 T02161058  RH  015%=      5-min Rain = 0
KBO1 140030Z 10003KT 22/M06 A30 RMK A01 T02171058  RH  015%=      5-min Rain = 0
KBO1 140031Z 09003KT 22/M06 A30 RMK A01 T02181058  RH  015%=      5-min Rain = 0
KBO1 140032Z 09003KT 22/M06 A30 RMK A01 T02181058  RH  015%=      5-min Rain = 0
KBO1 140033Z 10003KT 22/M06 A30 RMK A01 T02181061  RH  015%=      5-min Rain = 0
KBO1 140034Z 10003KT 22/M06 A30 RMK A01 T02181063  RH  015%=      5-min Rain = 0
KBO1 140035Z 10003KT 22/M06 A30 RMK A01 T02171061  RH  015%=      5-min Rain = 0
KBO1 140036Z 10004KT 22/M07 A30 RMK A01 T02171065  RH  015%=      5-min Rain = 0
KBO1 140037Z 09004KT 22/M07 A30 RMK A01 T02181067  RH  014%=      5-min Rain = 0
KBO1 140038Z 09004KT 22/M07 A3001 RMK A01 T02181066  RH  014%=      5-min Rain = 0
KBO1 140039Z 10004KT 22/M06 A3001 RMK A01 T02191064  RH  014%=      5-min Rain = 0
KBO1 140040Z 10004KT 22/M06 A3001 RMK A01 T02181064  RH  015%=      5-min Rain = 0
KBO1 140041Z 10004KT 22/M06 A3001 RMK A01 T02161059  RH  015%=      5-min Rain = 0
KBO1 140042Z 11004KT 21/M06 A3001 RMK A01 T02121058  RH  016%=      5-min Rain = 0
KBO1 140043Z 12004KT 21/M07 A3001 RMK A01 T02101066  RH  015%=      5-min Rain = 0
KBO1 140044Z 12004KT 21/M07 A3001 RMK A01 T02101069  RH  015%=      5-min Rain = 0
KBO1 140045Z 12004KT 21/M07 A3001 RMK A01 T02131065  RH  015%=      5-min Rain = 0
KBO1 140046Z 13004KT 21/M05 A3001 RMK A01 T02101053  RH  017%=      5-min Rain = 0
KBO1 140047Z 13004KT 21/M07 A3001 RMK A01 T02071070  RH  015%=      5-min Rain = 0
KBO1 140048Z 14004KT 21/M07 A3001 RMK A01 T02111071  RH  014%=      5-min Rain = 0
KBO1 140049Z 14005KT 21/M07 A3001 RMK A01 T02141070  RH  014%=      5-min Rain = 0
KBO1 140050Z 14004KT 21/M06 A3001 RMK A01 T02121064  RH  015%=      5-min Rain = 0
KBO1 140051Z 15005KT 21/M07 A3001 RMK A01 T02101070  RH  015%=      5-min Rain = 0
KBO1 140052Z 13005KT 21/M07 A3001 RMK A01 T02101066  RH  015%=      5-min Rain = 0
KBO1 140053Z 13005KT 21/M06 A3001 RMK A01 T02071061  RH  016%=      5-min Rain = 0
KBO1 140054Z 15005KT 20/M06 A3001 RMK A01 T02041057  RH  017%=      5-min Rain = 0
KBO1 140055Z 15005KT 20/M05 A3001 RMK A01 T02011051  RH  018%=      5-min Rain = 0
KBO1 140056Z 15005KT 20/M04 A3001 RMK A01 T01971044  RH  019%=      5-min Rain = 0
KBO1 140057Z 15005KT 19/M04 A3001 RMK A01 T01941042  RH  020%=      5-min Rain = 0
KBO1 140058Z 14005KT 19/M04 A3001 RMK A01 T01921044  RH  020%=      5-min Rain = 0
KBO1 140059Z 15004KT 19/M04 A3001 RMK A01 T01911039  RH  021%=      5-min Rain = 0
KBO1 140100Z 14004KT 19/M05 A3001 RMK A01 T01911049  RH  019%=      5-min Rain = 0
KBO1 140101Z 13004KT 20/M05 A3001 RMK A01 T01951049  RH  019%=      5-min Rain = 0
KBO1 140102Z 13005KT 20/M04 A3001 RMK A01 T01951036  RH  021%=      5-min Rain = 0
KBO1 140103Z 14005KT 19/M04 A3002 RMK A01 T01921038  RH  021%=      5-min Rain = 0
KBO1 140104Z 12004KT 19/M04 A3002 RMK A01 T01891036  RH  021%=      5-min Rain = 0
KBO1 140105Z 11004KT 19/M04 A3002 RMK A01 T01871036  RH  022%=      5-min Rain = 0
KBO1 140106Z 10004KT 18/M03 A3002 RMK A01 T01841031  RH  023%=      5-min Rain = 0
KBO1 140107Z 10004KT 18/M04 A3002 RMK A01 T01821040  RH  022%=      5-min Rain = 0
KBO1 140108Z 11004KT 18/M04 A3002 RMK A01 T01841041  RH  021%=      5-min Rain = 0
KBO1 140109Z 11005KT 18/M04 A3002 RMK A01 T01841036  RH  022%=      5-min Rain = 0
KBO1 140110Z 11006KT 18/M04 A3002 RMK A01 T01831039  RH  022%=      5-min Rain = 0
KBO1 140111Z 12006KT 18/M04 A3002 RMK A01 T01821037  RH  022%=      5-min Rain = 0
KBO1 140112Z 12006KT 18/M04 A3002 RMK A01 T01831036  RH  022%=      5-min Rain = 0
KBO1 140113Z 12006KT 18/M03 A3002 RMK A01 T01831032  RH  023%=      5-min Rain = 0
KBO1 140114Z 12006KT 18/M04 A3002 RMK A01 T01831036  RH  022%=      5-min Rain = 0
KBO1 140115Z 12006KT 19/M04 A3002 RMK A01 T01871036  RH  022%=      5-min Rain = 0
KBO1 140116Z 10006KT 19/M03 A3002 RMK A01 T01891032  RH  022%=      5-min Rain = 0
KBO1 140117Z 11007KT 19/M03 A3002 RMK A01 T01881029  RH  023%=      5-min Rain = 0
KBO1 140118Z 11008KT 18/M02 A3002 RMK A01 T01831020  RH  025%=      5-min Rain = 0
KBO1 140119Z 10007KT 18/M02 A3002 RMK A01 T01781023  RH  025%=      5-min Rain = 0
KBO1 140120Z 11006KT 18/M02 A3002 RMK A01 T01771022  RH  026%=      5-min Rain = 0
KBO1 140121Z 12005KT 18/M02 A3002 RMK A01 T01751021  RH  026%=      5-min Rain = 0
KBO1 140122Z 10008KT 17/M02 A3002 RMK A01 T01731018  RH  027%=      5-min Rain = 0
KBO1 140123Z 11007KT 17/M02 A3002 RMK A01 T01711017  RH  028%=      5-min Rain = 0
KBO1 140124Z 12007KT 17/M02 A3002 RMK A01 T01691016  RH  028%=      5-min Rain = 0
KBO1 140125Z 11007KT 17/M01 A3002 RMK A01 T01661012  RH  030%=      5-min Rain = 0
KBO1 140126Z 11006KT 16/M01 A3002 RMK A01 T01631013  RH  030%=      5-min Rain = 0
KBO1 140127Z 11006KT 16/M02 A3002 RMK A01 T01611015  RH  030%=      5-min Rain = 0
KBO1 140128Z 11006KT 16/M02 A3002 RMK A01 T01601016  RH  030%=      5-min Rain = 0
KBO1 140129Z 11005KT 16/M02 A3002 RMK A01 T01611021  RH  029%=      5-min Rain = 0
KBO1 140130Z 11006KT 16/M02 A3002 RMK A01 T01641023  RH  028%=      5-min Rain = 0
KBO1 140131Z 12005KT 17/M03 A3002 RMK A01 T01671025  RH  027%=      5-min Rain = 0
KBO1 140132Z 11006KT 17/M03 A3002 RMK A01 T01711025  RH  026%=      5-min Rain = 0
KBO1 140133Z 12007KT 17/M02 A3002 RMK A01 T01721022  RH  027%=      5-min Rain = 0
KBO1 140134Z 12007KT 17/M02 A3002 RMK A01 T01701021  RH  027%=      5-min Rain = 0
KBO1 140135Z 12006KT 17/M02 A3002 RMK A01 T01681020  RH  028%=      5-min Rain = 0
KBO1 140136Z 12006KT 17/M01 A3002 RMK A01 T01661013  RH  030%=      5-min Rain = 0
KBO1 140137Z 12006KT 16/M01 A3002 RMK A01 T01601013  RH  031%=      5-min Rain = 0
KBO1 140138Z 13006KT 16/M02 A3002 RMK A01 T01571016  RH  031%=      5-min Rain = 0
KBO1 140139Z 12006KT 16/M02 A3002 RMK A01 T01581018  RH  030%=      5-min Rain = 0
KBO1 140140Z 12006KT 16/M02 A3002 RMK A01 T01621019  RH  029%=      5-min Rain = 0
KBO1 140141Z 13005KT 17/M02 A3002 RMK A01 T01661017  RH  029%=      5-min Rain = 0
KBO1 140142Z 13005KT 17/M01 A3002 RMK A01 T01661013  RH  029%=      5-min Rain = 0
KBO1 140143Z 14004KT 16/M02 A3003 RMK A01 T01641017  RH  029%=      5-min Rain = 0
KBO1 140144Z 12005KT 17/M02 A3003 RMK A01 T01651017  RH  029%=      5-min Rain = 0
KBO1 140145Z 13005KT 17/M02 A3003 RMK A01 T01651018  RH  029%=      5-min Rain = 0
KBO1 140146Z 13005KT 17/M02 A3003 RMK A01 T01651018  RH  029%=      5-min Rain = 0
KBO1 140147Z 12004KT 17/M02 A3003 RMK A01 T01651019  RH  028%=      5-min Rain = 0
KBO1 140148Z 13004KT 17/M02 A3003 RMK A01 T01661020  RH  028%=      5-min Rain = 0
KBO1 140149Z 15004KT 17/M02 A3003 RMK A01 T01681020  RH  028%=      5-min Rain = 0
KBO1 140150Z 15004KT 17/M02 A3003 RMK A01 T01691021  RH  027%=      5-min Rain = 0
KBO1 140151Z 15003KT 17/M02 A3003 RMK A01 T01721024  RH  026%=      5-min Rain = 0
KBO1 140152Z 14004KT 17/M02 A3003 RMK A01 T01741018  RH  027%=      5-min Rain = 0
KBO1 140153Z 15004KT 17/M02 A3003 RMK A01 T01721019  RH  027%=      5-min Rain = 0
KBO1 140154Z 14004KT 17/M02 A3003 RMK A01 T01711021  RH  027%=      5-min Rain = 0
KBO1 140155Z 14004KT 17/M02 A3003 RMK A01 T01711021  RH  027%=      5-min Rain = 0
KBO1 140156Z 15004KT 17/M02 A3003 RMK A01 T01701019  RH  027%=      5-min Rain = 0
KBO1 140157Z 16003KT 17/M02 A3003 RMK A01 T01681017  RH  028%=      5-min Rain = 0
KBO1 140158Z 16003KT 17/M02 A3003 RMK A01 T01661017  RH  029%=      5-min Rain = 0
KBO1 140159Z 17004KT 16/M02 A3003 RMK A01 T01641017  RH  029%=      5-min Rain = 0
KBO1 140200Z 17004KT 16/M02 A3003 RMK A01 T01621016  RH  030%=      5-min Rain = 0
KBO1 140201Z 17003KT 16/M02 A3003 RMK A01 T01611018  RH  029%=      5-min Rain = 0
KBO1 140202Z 16003KT 16/M02 A3003 RMK A01 T01611020  RH  029%=      5-min Rain = 0
KBO1 140203Z 17003KT 16/M02 A3003 RMK A01 T01631019  RH  029%=      5-min Rain = 0
KBO1 140204Z 17004KT 16/M02 A3003 RMK A01 T01641015  RH  029%=      5-min Rain = 0
KBO1 140205Z 17004KT 16/M02 A3003 RMK A01 T01631016  RH  029%=      5-min Rain = 0
KBO1 140206Z 17004KT 16/M02 A3003 RMK A01 T01631020  RH  029%=      5-min Rain = 0
KBO1 140207Z 17004KT 16/M02 A3003 RMK A01 T01641017  RH  029%=      5-min Rain = 0
KBO1 140208Z 19004KT 16/M01 A3003 RMK A01 T01631008  RH  031%=      5-min Rain = 0
KBO1 140209Z 17003KT 16/M01 A3003 RMK A01 T01591014  RH  031%=      5-min Rain = 0
KBO1 140210Z 17004KT 16/M02 A3003 RMK A01 T01581016  RH  030%=      5-min Rain = 0
KBO1 140211Z 16003KT 16/M01 A3003 RMK A01 T01571013  RH  031%=      5-min Rain = 0
KBO1 140212Z 16003KT 16/M02 A3003 RMK A01 T01561017  RH  031%=      5-min Rain = 0
KBO1 140213Z 16003KT 16/M02 A3003 RMK A01 T01571020  RH  030%=      5-min Rain = 0
KBO1 140214Z 16002KT 16/M02 A3003 RMK A01 T01591021  RH  029%=      5-min Rain = 0
KBO1 140215Z 16002KT 16/M02 A3003 RMK A01 T01611021  RH  029%=      5-min Rain = 0
KBO1 140216Z 15002KT 16/M02 A3003 RMK A01 T01611019  RH  029%=      5-min Rain = 0
KBO1 140217Z 16002KT 16/M02 A3003 RMK A01 T01611020  RH  029%=      5-min Rain = 0
KBO1 140218Z 16002KT 16/M02 A3003 RMK A01 T01611024  RH  028%=      5-min Rain = 0
KBO1 140219Z 16002KT 17/M03 A3003 RMK A01 T01651025  RH  027%=      5-min Rain = 0
KBO1 140220Z 16001KT 17/M02 A3003 RMK A01 T01671024  RH  027%=      5-min Rain = 0
KBO1 140221Z 17001KT 17/M02 A3003 RMK A01 T01671024  RH  027%=      5-min Rain = 0
KBO1 140222Z 16001KT 17/M02 A3003 RMK A01 T01671023  RH  027%=      5-min Rain = 0
KBO1 140223Z 17001KT 17/M02 A3003 RMK A01 T01671024  RH  027%=      5-min Rain = 0
KBO1 140224Z 19002KT 17/M03 A3003 RMK A01 T01671026  RH  026%=      5-min Rain = 0
KBO1 140225Z 20002KT 17/M03 A3003 RMK A01 T01681028  RH  026%=      5-min Rain = 0
KBO1 140226Z 20001KT 17/M03 A3003 RMK A01 T01701027  RH  026%=      5-min Rain = 0
KBO1 140227Z 19001KT 17/M03 A3003 RMK A01 T01711028  RH  026%=      5-min Rain = 0
KBO1 140228Z 20002KT 17/M02 A3003 RMK A01 T01711019  RH  027%=      5-min Rain = 0
KBO1 140229Z 19001KT 17/M02 A3003 RMK A01 T01671016  RH  029%=      5-min Rain = 0
KBO1 140230Z 20002KT 16/M02 A3003 RMK A01 T01631015  RH  030%=      5-min Rain = 0
KBO1 140231Z 21002KT 16/M02 A3003 RMK A01 T01591016  RH  030%=      5-min Rain = 0
KBO1 140232Z 22002KT 16/M02 A3003 RMK A01 T01571016  RH  030%=      5-min Rain = 0
KBO1 140233Z 20003KT 16/M02 A3003 RMK A01 T01561020  RH  030%=      5-min Rain = 0
KBO1 140234Z 20003KT 16/M02 A3003 RMK A01 T01571023  RH  029%=      5-min Rain = 0
KBO1 140235Z 20003KT 16/M02 A3003 RMK A01 T01591022  RH  029%=      5-min Rain = 0
KBO1 140236Z 20003KT 16/M02 A3003 RMK A01 T01611022  RH  028%=      5-min Rain = 0
KBO1 140237Z 21004KT 16/M02 A3003 RMK A01 T01621022  RH  028%=      5-min Rain = 0
KBO1 140238Z 21004KT 16/M02 A3003 RMK A01 T01641022  RH  028%=      5-min Rain = 0
KBO1 140239Z 21004KT 16/M02 A3003 RMK A01 T01641021  RH  028%=      5-min Rain = 0
KBO1 140240Z 21004KT 16/M02 A3003 RMK A01 T01641020  RH  028%=      5-min Rain = 0
KBO1 140241Z 21004KT 16/M02 A3003 RMK A01 T01621018  RH  029%=      5-min Rain = 0
KBO1 140242Z 21004KT 16/M02 A3003 RMK A01 T01611019  RH  029%=      5-min Rain = 0
KBO1 140243Z 21005KT 16/M02 A3003 RMK A01 T01601019  RH  029%=      5-min Rain = 0
KBO1 140244Z 21005KT 16/M02 A3003 RMK A01 T01591018  RH  030%=      5-min Rain = 0
KBO1 140245Z 21005KT 16/M02 A3003 RMK A01 T01571017  RH  030%=      5-min Rain = 0
KBO1 140246Z 21005KT 16/M02 A3003 RMK A01 T01561016  RH  031%=      5-min Rain = 0
KBO1 140247Z 21006KT 15/M02 A3003 RMK A01 T01541016  RH  031%=      5-min Rain = 0
KBO1 140248Z 21006KT 15/M01 A3003 RMK A01 T01531014  RH  032%=      5-min Rain = 0
KBO1 140249Z 21007KT 15/M01 A3003 RMK A01 T01521012  RH  033%=      5-min Rain = 0
KBO1 140250Z 21007KT 15/M01 A3003 RMK A01 T01491011  RH  033%=      5-min Rain = 0
KBO1 140251Z 21008KT 15/M01 A3003 RMK A01 T01471008  RH  034%=      5-min Rain = 0
KBO1 140252Z 21008KT 14/M00 A3003 RMK A01 T01441004  RH  036%=      5-min Rain = 0
KBO1 140253Z 21008KT 14/M00 A3003 RMK A01 T01411001  RH  038%=      5-min Rain = 0
KBO1 140254Z 21008KT 14/00 A3003 RMK A01 T01370001  RH  039%=      5-min Rain = 0
KBO1 140255Z 21008KT 14/00 A3003 RMK A01 T01350004  RH  041%=      5-min Rain = 0
KBO1 140256Z 21009KT 13/01 A3003 RMK A01 T01320006  RH  042%=      5-min Rain = 0
KBO1 140257Z 21009KT 13/01 A3003 RMK A01 T01300009  RH  044%=      5-min Rain = 0
KBO1 140258Z 21009KT 13/01 A3003 RMK A01 T01260011  RH  045%=      5-min Rain = 0
KBO1 140259Z 21009KT 12/01 A3003 RMK A01 T01230012  RH  047%=      5-min Rain = 0
KBO1 140300Z 21009KT 12/01 A3003 RMK A01 T01200012  RH  048%=      5-min Rain = 0
KBO1 140301Z 21010KT 12/01 A3003 RMK A01 T01190013  RH  048%=      5-min Rain = 0
KBO1 140302Z 21009KT 12/01 A3004 RMK A01 T01180013  RH  049%=      5-min Rain = 0
KBO1 140303Z 21010KT 12/01 A3003 RMK A01 T01160012  RH  049%=      5-min Rain = 0
KBO1 140304Z 20010KT 12/01 A3003 RMK A01 T01160010  RH  048%=      5-min Rain = 0
KBO1 140305Z 20011KT 12/01 A3003 RMK A01 T01170010  RH  048%=      5-min Rain = 0
KBO1 140306Z 20010KT 12/01 A3003 RMK A01 T01180009  RH  047%=      5-min Rain = 0
KBO1 140307Z 20010KT 12/01 A3003 RMK A01 T01190009  RH  047%=      5-min Rain = 0
KBO1 140308Z 21010KT 12/01 A3003 RMK A01 T01200009  RH  047%=      5-min Rain = 0
KBO1 140309Z 20010KT 12/01 A3003 RMK A01 T01190010  RH  047%=      5-min Rain = 0
KBO1 140310Z 20010KT 12/01 A3003 RMK A01 T01190010  RH  047%=      5-min Rain = 0
KBO1 140311Z 20010KT 12/01 A3003 RMK A01 T01190010  RH  047%=      5-min Rain = 0
KBO1 140312Z 20010KT 12/01 A3003 RMK A01 T01190010  RH  047%=      5-min Rain = 0
KBO1 140313Z 20010KT 12/01 A3003 RMK A01 T01190010  RH  047%=      5-min Rain = 0
KBO1 140314Z 20009KT 12/01 A3003 RMK A01 T01190010  RH  047%=      5-min Rain = 0
KBO1 140315Z 20010KT 12/01 A3003 RMK A01 T01190009  RH  047%=      5-min Rain = 0
KBO1 140316Z 20011KT 12/01 A3003 RMK A01 T01210009  RH  046%=      5-min Rain = 0
KBO1 140317Z 20011KT 12/01 A3003 RMK A01 T01230009  RH  046%=      5-min Rain = 0
KBO1 140318Z 20010KT 13/01 A3003 RMK A01 T01250008  RH  045%=      5-min Rain = 0
KBO1 140319Z 20010KT 13/01 A3003 RMK A01 T01270008  RH  044%=      5-min Rain = 0
KBO1 140320Z 20010KT 13/01 A3003 RMK A01 T01280009  RH  044%=      5-min Rain = 0
KBO1 140321Z 20010KT 13/01 A3003 RMK A01 T01280009  RH  044%=      5-min Rain = 0
KBO1 140322Z 20010KT 13/01 A3003 RMK A01 T01270009  RH  044%=      5-min Rain = 0
KBO1 140323Z 20009KT 13/01 A3003 RMK A01 T01260010  RH  045%=      5-min Rain = 0
KBO1 140324Z 20009KT 13/01 A3003 RMK A01 T01250010  RH  045%=      5-min Rain = 0
KBO1 140325Z 20009KT 12/01 A3003 RMK A01 T01230010  RH  046%=      5-min Rain = 0
KBO1 140326Z 20009KT 12/01 A3003 RMK A01 T01220010  RH  046%=      5-min Rain = 0
KBO1 140327Z 20010KT 12/01 A3004 RMK A01 T01200011  RH  047%=      5-min Rain = 0
KBO1 140328Z 20011KT 12/01 A3004 RMK A01 T01190011  RH  047%=      5-min Rain = 0
KBO1 140329Z 20011KT 12/01 A3004 RMK A01 T01190010  RH  047%=      5-min Rain = 0
KBO1 140330Z 20011KT 12/01 A3004 RMK A01 T01220008  RH  046%=      5-min Rain = 0
KBO1 140331Z 20011KT 13/01 A3004 RMK A01 T01260008  RH  044%=      5-min Rain = 0
KBO1 140332Z 20010KT 13/01 A3004 RMK A01 T01290009  RH  044%=      5-min Rain = 0
KBO1 140333Z 20009KT 13/01 A3004 RMK A01 T01300009  RH  044%=      5-min Rain = 0
KBO1 140334Z 20010KT 13/01 A3004 RMK A01 T01300011  RH  044%=      5-min Rain = 0
KBO1 140335Z 20010KT 13/01 A3004 RMK A01 T01280011  RH  045%=      5-min Rain = 0
KBO1 140336Z 20011KT 13/01 A3004 RMK A01 T01270011  RH  045%=      5-min Rain = 0
KBO1 140337Z 20013KT 13/01 A3004 RMK A01 T01260009  RH  045%=      5-min Rain = 0
KBO1 140338Z 21011KT 13/01 A3004 RMK A01 T01280007  RH  043%=      5-min Rain = 0
KBO1 140339Z 21011KT 13/01 A3004 RMK A01 T01320006  RH  042%=      5-min Rain = 0
KBO1 140340Z 21012KT 14/01 A3004 RMK A01 T01350005  RH  041%=      5-min Rain = 0
KBO1 140341Z 21010KT 14/01 A3004 RMK A01 T01390005  RH  040%=      5-min Rain = 0
KBO1 140342Z 21012KT 14/01 A3004 RMK A01 T01410006  RH  040%=      5-min Rain = 0
KBO1 140343Z 21011KT 14/01 A3004 RMK A01 T01420006  RH  039%=      5-min Rain = 0
KBO1 140344Z 21010KT 14/01 A3004 RMK A01 T01420008  RH  040%=      5-min Rain = 0
KBO1 140345Z 21010KT 14/01 A3004 RMK A01 T01380010  RH  042%=      5-min Rain = 0
KBO1 140346Z 21011KT 13/01 A3004 RMK A01 T01330010  RH  043%=      5-min Rain = 0
KBO1 140347Z 21010KT 13/01 A3004 RMK A01 T01290010  RH  044%=      5-min Rain = 0
KBO1 140348Z 21011KT 13/01 A3004 RMK A01 T01280010  RH  045%=      5-min Rain = 0
KBO1 140349Z 20011KT 13/01 A3004 RMK A01 T01260011  RH  045%=      5-min Rain = 0
KBO1 140350Z 20011KT 13/01 A3004 RMK A01 T01260010  RH  045%=      5-min Rain = 0
KBO1 140351Z 21010KT 13/01 A3004 RMK A01 T01260009  RH  045%=      5-min Rain = 0
KBO1 140352Z 21009KT 13/01 A3004 RMK A01 T01280010  RH  044%=      5-min Rain = 0
KBO1 140353Z 22009KT 13/01 A3004 RMK A01 T01280012  RH  045%=      5-min Rain = 0
KBO1 140354Z 22009KT 13/01 A3004 RMK A01 T01260014  RH  046%=      5-min Rain = 0
KBO1 140355Z 21009KT 12/02 A3004 RMK A01 T01220016  RH  048%=      5-min Rain = 0
KBO1 140356Z 21010KT 12/02 A3004 RMK A01 T01200015  RH  049%=      5-min Rain = 0
KBO1 140357Z 21010KT 12/02 A3004 RMK A01 T01190015  RH  049%=      5-min Rain = 0
KBO1 140358Z 21010KT 12/02 A3004 RMK A01 T01190015  RH  049%=      5-min Rain = 0
KBO1 140359Z 21010KT 12/01 A3004 RMK A01 T01200014  RH  048%=      5-min Rain = 0
KBO1 140400Z 21010KT 12/01 A3004 RMK A01 T01210014  RH  048%=      5-min Rain = 0
KBO1 140401Z 21010KT 12/02 A3004 RMK A01 T01210015  RH  048%=      5-min Rain = 0
KBO1 140402Z 21010KT 12/02 A3004 RMK A01 T01220016  RH  048%=      5-min Rain = 0
KBO1 140403Z 21010KT 12/02 A3004 RMK A01 T01210018  RH  049%=      5-min Rain = 0
KBO1 140404Z 21010KT 12/02 A3004 RMK A01 T01190018  RH  050%=      5-min Rain = 0
KBO1 140405Z 21011KT 12/02 A3004 RMK A01 T01180017  RH  050%=      5-min Rain = 0
KBO1 140406Z 21011KT 12/02 A3004 RMK A01 T01180015  RH  049%=      5-min Rain = 0
KBO1 140407Z 21011KT 12/01 A3004 RMK A01 T01190014  RH  048%=      5-min Rain = 0
KBO1 140408Z 21011KT 12/01 A3004 RMK A01 T01220014  RH  048%=      5-min Rain = 0
KBO1 140409Z 21011KT 12/01 A3004 RMK A01 T01240013  RH  047%=      5-min Rain = 0
KBO1 140410Z 21011KT 13/01 A3004 RMK A01 T01260013  RH  046%=      5-min Rain = 0
KBO1 140411Z 21010KT 13/01 A3004 RMK A01 T01270013  RH  046%=      5-min Rain = 0
KBO1 140412Z 22010KT 13/01 A3004 RMK A01 T01270014  RH  046%=      5-min Rain = 0
KBO1 140413Z 21010KT 13/02 A3004 RMK A01 T01260015  RH  047%=      5-min Rain = 0
KBO1 140414Z 21010KT 12/02 A3004 RMK A01 T01240015  RH  047%=      5-min Rain = 0
KBO1 140415Z 21010KT 12/02 A3004 RMK A01 T01210015  RH  048%=      5-min Rain = 0
KBO1 140416Z 21010KT 12/02 A3004 RMK A01 T01190015  RH  049%=      5-min Rain = 0
KBO1 140417Z 21010KT 12/01 A3004 RMK A01 T01180014  RH  049%=      5-min Rain = 0
KBO1 140418Z 22010KT 12/02 A3004 RMK A01 T01180015  RH  049%=      5-min Rain = 0
KBO1 140419Z 22010KT 12/02 A3004 RMK A01 T01170015  RH  050%=      5-min Rain = 0
KBO1 140420Z 22010KT 12/02 A3004 RMK A01 T01170016  RH  050%=      5-min Rain = 0
KBO1 140421Z 22010KT 12/02 A3004 RMK A01 T01170016  RH  050%=      5-min Rain = 0
KBO1 140422Z 22010KT 12/02 A3004 RMK A01 T01160016  RH  050%=      5-min Rain = 0
KBO1 140423Z 22010KT 12/02 A3004 RMK A01 T01170016  RH  050%=      5-min Rain = 0
KBO1 140424Z 22010KT 12/02 A3004 RMK A01 T01170016  RH  050%=      5-min Rain = 0
KBO1 140425Z 22010KT 12/02 A3004 RMK A01 T01170017  RH  050%=      5-min Rain = 0
KBO1 140426Z 22010KT 12/02 A3004 RMK A01 T01170017  RH  050%=      5-min Rain = 0
KBO1 140427Z 22010KT 12/02 A3004 RMK A01 T01170017  RH  050%=      5-min Rain = 0
KBO1 140428Z 22010KT 12/02 A3004 RMK A01 T01180018  RH  050%=      5-min Rain = 0
KBO1 140429Z 22010KT 12/02 A3004 RMK A01 T01200019  RH  050%=      5-min Rain = 0
KBO1 140430Z 22010KT 12/02 A3004 RMK A01 T01210019  RH  050%=      5-min Rain = 0
KBO1 140431Z 22010KT 12/02 A3004 RMK A01 T01220020  RH  050%=      5-min Rain = 0
KBO1 140432Z 22009KT 12/02 A3004 RMK A01 T01220021  RH  050%=      5-min Rain = 0
KBO1 140433Z 22010KT 12/02 A3004 RMK A01 T01230022  RH  050%=      5-min Rain = 0
KBO1 140434Z 22009KT 12/02 A3004 RMK A01 T01230023  RH  050%=      5-min Rain = 0
KBO1 140435Z 22010KT 12/02 A3004 RMK A01 T01230023  RH  050%=      5-min Rain = 0
KBO1 140436Z 22010KT 12/02 A3004 RMK A01 T01240023  RH  050%=      5-min Rain = 0
KBO1 140437Z 23010KT 13/02 A3004 RMK A01 T01250023  RH  050%=      5-min Rain = 0
KBO1 140438Z 23010KT 13/02 A3004 RMK A01 T01250023  RH  050%=      5-min Rain = 0
KBO1 140439Z 23010KT 13/02 A3004 RMK A01 T01250023  RH  050%=      5-min Rain = 0
KBO1 140440Z 22010KT 13/02 A3004 RMK A01 T01250023  RH  050%=      5-min Rain = 0
KBO1 140441Z 23010KT 12/02 A3004 RMK A01 T01240022  RH  050%=      5-min Rain = 0
KBO1 140442Z 23010KT 12/02 A3004 RMK A01 T01240022  RH  050%=      5-min Rain = 0
KBO1 140443Z 23010KT 12/02 A3004 RMK A01 T01220022  RH  050%=      5-min Rain = 0
KBO1 140444Z 23011KT 12/02 A3004 RMK A01 T01200021  RH  051%=      5-min Rain = 0
KBO1 140445Z 23011KT 12/02 A3004 RMK A01 T01190021  RH  051%=      5-min Rain = 0
KBO1 140446Z 23010KT 12/02 A3004 RMK A01 T01190020  RH  051%=      5-min Rain = 0
KBO1 140447Z 23010KT 12/02 A3004 RMK A01 T01190020  RH  051%=      5-min Rain = 0
KBO1 140448Z 23010KT 12/02 A3004 RMK A01 T01190021  RH  051%=      5-min Rain = 0
KBO1 140449Z 23010KT 12/02 A3004 RMK A01 T01190021  RH  051%=      5-min Rain = 0
KBO1 140450Z 23011KT 12/02 A3004 RMK A01 T01180021  RH  051%=      5-min Rain = 0
KBO1 140451Z 23011KT 12/02 A3004 RMK A01 T01180020  RH  051%=      5-min Rain = 0
KBO1 140452Z 23010KT 12/02 A3004 RMK A01 T01190019  RH  050%=      5-min Rain = 0
KBO1 140453Z 23010KT 12/02 A3004 RMK A01 T01200020  RH  050%=      5-min Rain = 0
KBO1 140454Z 23011KT 12/02 A3004 RMK A01 T01200020  RH  050%=      5-min Rain = 0
KBO1 140455Z 23010KT 12/02 A3004 RMK A01 T01200020  RH  050%=      5-min Rain = 0
KBO1 140456Z 23010KT 12/02 A3004 RMK A01 T01200020  RH  050%=      5-min Rain = 0
KBO1 140457Z 23010KT 12/02 A3004 RMK A01 T01200021  RH  051%=      5-min Rain = 0
KBO1 140458Z 23010KT 12/02 A3004 RMK A01 T01190021  RH  051%=      5-min Rain = 0
KBO1 140459Z 23010KT 12/02 A3004 RMK A01 T01190021  RH  051%=      5-min Rain = 0

Page generated in 0.0708 seconds.